<?xml version="1.0" encoding="UTF-8" standalone="no" ?>
<gpx xmlns="http://www.topografix.com/GPX/1/1" xmlns:xsi="http://www.w3.org/2001/XMLSchema-instance" xsi:schemaLocation="http://www.topografix.com/GPX/1/1 http://www.topografix.com/GPX/1/1/gpx.xsd" version="1.1" creator="VisuGPX - https://www.visugpx.com">
  <metadata>
    <name>boucle chalagnac 13km</name>
  </metadata>
  <trk>
    <name><![CDATA[boucle chalagnac 13km_1]]></name>
    <trkseg>
      <trkpt lat="45.08495" lon="0.66769">
        <ele>171.7</ele>
        <time>2019-04-18T13:58:29Z</time>
      </trkpt>
      <trkpt lat="45.08495" lon="0.66769">
        <ele>171.7</ele>
        <time>2019-04-18T13:58:29Z</time>
      </trkpt>
      <trkpt lat="45.08506" lon="0.66758">
        <ele>173.17</ele>
        <time>2019-04-18T13:58:48Z</time>
      </trkpt>
      <trkpt lat="45.08517" lon="0.66741">
        <ele>172.69</ele>
        <time>2019-04-18T13:59:06Z</time>
      </trkpt>
      <trkpt lat="45.08528" lon="0.66727">
        <ele>172.21</ele>
        <time>2019-04-18T13:59:24Z</time>
      </trkpt>
      <trkpt lat="45.08539" lon="0.66716">
        <ele>172.21</ele>
        <time>2019-04-18T13:59:36Z</time>
      </trkpt>
      <trkpt lat="45.0855" lon="0.66694">
        <ele>171.25</ele>
        <time>2019-04-18T13:59:51Z</time>
      </trkpt>
      <trkpt lat="45.0856" lon="0.6668">
        <ele>170.77</ele>
        <time>2019-04-18T14:00:06Z</time>
      </trkpt>
      <trkpt lat="45.0857" lon="0.66667">
        <ele>170.29</ele>
        <time>2019-04-18T14:00:20Z</time>
      </trkpt>
      <trkpt lat="45.08588" lon="0.66655">
        <ele>167.89</ele>
        <time>2019-04-18T14:00:42Z</time>
      </trkpt>
      <trkpt lat="45.08597" lon="0.6665">
        <ele>165.96</ele>
        <time>2019-04-18T14:01:02Z</time>
      </trkpt>
      <trkpt lat="45.08612" lon="0.66636">
        <ele>164.52</ele>
        <time>2019-04-18T14:01:18Z</time>
      </trkpt>
      <trkpt lat="45.08613" lon="0.66632">
        <ele>163.56</ele>
        <time>2019-04-18T14:01:39Z</time>
      </trkpt>
      <trkpt lat="45.0862" lon="0.66623">
        <ele>163.56</ele>
        <time>2019-04-18T14:02:01Z</time>
      </trkpt>
      <trkpt lat="45.08624" lon="0.66618">
        <ele>163.08</ele>
        <time>2019-04-18T14:02:07Z</time>
      </trkpt>
      <trkpt lat="45.08631" lon="0.66608">
        <ele>162.6</ele>
        <time>2019-04-18T14:02:18Z</time>
      </trkpt>
      <trkpt lat="45.08639" lon="0.66601">
        <ele>162.12</ele>
        <time>2019-04-18T14:02:27Z</time>
      </trkpt>
      <trkpt lat="45.08648" lon="0.66594">
        <ele>162.12</ele>
        <time>2019-04-18T14:02:37Z</time>
      </trkpt>
      <trkpt lat="45.08662" lon="0.66582">
        <ele>161.64</ele>
        <time>2019-04-18T14:02:52Z</time>
      </trkpt>
      <trkpt lat="45.08673" lon="0.66565">
        <ele>161.64</ele>
        <time>2019-04-18T14:03:08Z</time>
      </trkpt>
      <trkpt lat="45.08674" lon="0.66564">
        <ele>161.16</ele>
        <time>2019-04-18T14:03:09Z</time>
      </trkpt>
      <trkpt lat="45.08677" lon="0.66558">
        <ele>161.16</ele>
        <time>2019-04-18T14:03:14Z</time>
      </trkpt>
      <trkpt lat="45.08686" lon="0.66538">
        <ele>160.2</ele>
        <time>2019-04-18T14:03:29Z</time>
      </trkpt>
      <trkpt lat="45.08686" lon="0.66537">
        <ele>159.72</ele>
        <time>2019-04-18T14:03:30Z</time>
      </trkpt>
      <trkpt lat="45.08699" lon="0.66512">
        <ele>158.75</ele>
        <time>2019-04-18T14:03:48Z</time>
      </trkpt>
      <trkpt lat="45.0871" lon="0.66495">
        <ele>156.83</ele>
        <time>2019-04-18T14:04:04Z</time>
      </trkpt>
      <trkpt lat="45.08716" lon="0.66489">
        <ele>156.35</ele>
        <time>2019-04-18T14:04:10Z</time>
      </trkpt>
      <trkpt lat="45.08717" lon="0.66488">
        <ele>156.35</ele>
        <time>2019-04-18T14:04:11Z</time>
      </trkpt>
      <trkpt lat="45.08718" lon="0.66486">
        <ele>155.87</ele>
        <time>2019-04-18T14:04:13Z</time>
      </trkpt>
      <trkpt lat="45.08733" lon="0.66473">
        <ele>154.43</ele>
        <time>2019-04-18T14:04:29Z</time>
      </trkpt>
      <trkpt lat="45.08735" lon="0.66472">
        <ele>154.43</ele>
        <time>2019-04-18T14:04:31Z</time>
      </trkpt>
      <trkpt lat="45.08736" lon="0.66472">
        <ele>154.43</ele>
        <time>2019-04-18T14:04:32Z</time>
      </trkpt>
      <trkpt lat="45.08738" lon="0.66471">
        <ele>154.43</ele>
        <time>2019-04-18T14:04:33Z</time>
      </trkpt>
      <trkpt lat="45.08739" lon="0.66471">
        <ele>154.43</ele>
        <time>2019-04-18T14:04:34Z</time>
      </trkpt>
      <trkpt lat="45.08741" lon="0.6647">
        <ele>154.43</ele>
        <time>2019-04-18T14:04:35Z</time>
      </trkpt>
      <trkpt lat="45.08742" lon="0.6647">
        <ele>154.43</ele>
        <time>2019-04-18T14:04:36Z</time>
      </trkpt>
      <trkpt lat="45.08758" lon="0.66468">
        <ele>154.43</ele>
        <time>2019-04-18T14:04:49Z</time>
      </trkpt>
      <trkpt lat="45.08772" lon="0.66466">
        <ele>154.43</ele>
        <time>2019-04-18T14:05:06Z</time>
      </trkpt>
      <trkpt lat="45.08787" lon="0.66464">
        <ele>154.43</ele>
        <time>2019-04-18T14:05:23Z</time>
      </trkpt>
      <trkpt lat="45.08798" lon="0.66466">
        <ele>154.43</ele>
        <time>2019-04-18T14:05:32Z</time>
      </trkpt>
      <trkpt lat="45.088" lon="0.66467">
        <ele>154.43</ele>
        <time>2019-04-18T14:05:33Z</time>
      </trkpt>
      <trkpt lat="45.08815" lon="0.66472">
        <ele>154.91</ele>
        <time>2019-04-18T14:05:47Z</time>
      </trkpt>
      <trkpt lat="45.08826" lon="0.66478">
        <ele>154.91</ele>
        <time>2019-04-18T14:05:58Z</time>
      </trkpt>
      <trkpt lat="45.0883" lon="0.66479">
        <ele>155.39</ele>
        <time>2019-04-18T14:06:01Z</time>
      </trkpt>
      <trkpt lat="45.08831" lon="0.6648">
        <ele>155.39</ele>
        <time>2019-04-18T14:06:02Z</time>
      </trkpt>
      <trkpt lat="45.08849" lon="0.66493">
        <ele>155.87</ele>
        <time>2019-04-18T14:06:19Z</time>
      </trkpt>
      <trkpt lat="45.08867" lon="0.66511">
        <ele>157.31</ele>
        <time>2019-04-18T14:06:41Z</time>
      </trkpt>
      <trkpt lat="45.08871" lon="0.66516">
        <ele>157.79</ele>
        <time>2019-04-18T14:06:58Z</time>
      </trkpt>
      <trkpt lat="45.08878" lon="0.66535">
        <ele>159.72</ele>
        <time>2019-04-18T14:07:16Z</time>
      </trkpt>
      <trkpt lat="45.08885" lon="0.66542">
        <ele>160.68</ele>
        <time>2019-04-18T14:07:25Z</time>
      </trkpt>
      <trkpt lat="45.08885" lon="0.66544">
        <ele>161.16</ele>
        <time>2019-04-18T14:07:46Z</time>
      </trkpt>
      <trkpt lat="45.08882" lon="0.66544">
        <ele>161.16</ele>
        <time>2019-04-18T14:08:15Z</time>
      </trkpt>
      <trkpt lat="45.08885" lon="0.66544">
        <ele>161.16</ele>
        <time>2019-04-18T14:08:28Z</time>
      </trkpt>
      <trkpt lat="45.08886" lon="0.66546">
        <ele>161.16</ele>
        <time>2019-04-18T14:08:29Z</time>
      </trkpt>
      <trkpt lat="45.08894" lon="0.66559">
        <ele>162.12</ele>
        <time>2019-04-18T14:08:39Z</time>
      </trkpt>
      <trkpt lat="45.08903" lon="0.66581">
        <ele>162.6</ele>
        <time>2019-04-18T14:08:55Z</time>
      </trkpt>
      <trkpt lat="45.08913" lon="0.666">
        <ele>163.56</ele>
        <time>2019-04-18T14:09:13Z</time>
      </trkpt>
      <trkpt lat="45.08922" lon="0.66619">
        <ele>165</ele>
        <time>2019-04-18T14:09:30Z</time>
      </trkpt>
      <trkpt lat="45.08928" lon="0.66639">
        <ele>165.48</ele>
        <time>2019-04-18T14:09:43Z</time>
      </trkpt>
      <trkpt lat="45.08935" lon="0.66656">
        <ele>165.96</ele>
        <time>2019-04-18T14:09:59Z</time>
      </trkpt>
      <trkpt lat="45.08945" lon="0.66677">
        <ele>166.45</ele>
        <time>2019-04-18T14:10:17Z</time>
      </trkpt>
      <trkpt lat="45.08954" lon="0.66698">
        <ele>167.41</ele>
        <time>2019-04-18T14:10:31Z</time>
      </trkpt>
      <trkpt lat="45.08961" lon="0.66723">
        <ele>168.37</ele>
        <time>2019-04-18T14:10:51Z</time>
      </trkpt>
      <trkpt lat="45.08972" lon="0.66747">
        <ele>169.33</ele>
        <time>2019-04-18T14:11:09Z</time>
      </trkpt>
      <trkpt lat="45.08978" lon="0.66766">
        <ele>170.29</ele>
        <time>2019-04-18T14:11:26Z</time>
      </trkpt>
      <trkpt lat="45.08981" lon="0.66778">
        <ele>170.29</ele>
        <time>2019-04-18T14:11:34Z</time>
      </trkpt>
      <trkpt lat="45.08987" lon="0.668">
        <ele>170.29</ele>
        <time>2019-04-18T14:11:48Z</time>
      </trkpt>
      <trkpt lat="45.0899" lon="0.6682">
        <ele>169.81</ele>
        <time>2019-04-18T14:12:04Z</time>
      </trkpt>
      <trkpt lat="45.08994" lon="0.66843">
        <ele>169.81</ele>
        <time>2019-04-18T14:12:21Z</time>
      </trkpt>
      <trkpt lat="45.08995" lon="0.66865">
        <ele>169.81</ele>
        <time>2019-04-18T14:12:35Z</time>
      </trkpt>
      <trkpt lat="45.08995" lon="0.66885">
        <ele>169.81</ele>
        <time>2019-04-18T14:12:51Z</time>
      </trkpt>
      <trkpt lat="45.08993" lon="0.66898">
        <ele>170.29</ele>
        <time>2019-04-18T14:13:03Z</time>
      </trkpt>
      <trkpt lat="45.08993" lon="0.66918">
        <ele>170.29</ele>
        <time>2019-04-18T14:13:19Z</time>
      </trkpt>
      <trkpt lat="45.08994" lon="0.66927">
        <ele>170.29</ele>
        <time>2019-04-18T14:13:34Z</time>
      </trkpt>
      <trkpt lat="45.08993" lon="0.66936">
        <ele>170.29</ele>
        <time>2019-04-18T14:13:39Z</time>
      </trkpt>
      <trkpt lat="45.08991" lon="0.66961">
        <ele>171.25</ele>
        <time>2019-04-18T14:13:58Z</time>
      </trkpt>
      <trkpt lat="45.08991" lon="0.66979">
        <ele>171.73</ele>
        <time>2019-04-18T14:14:15Z</time>
      </trkpt>
      <trkpt lat="45.08989" lon="0.66996">
        <ele>172.21</ele>
        <time>2019-04-18T14:14:29Z</time>
      </trkpt>
      <trkpt lat="45.08988" lon="0.67022">
        <ele>173.17</ele>
        <time>2019-04-18T14:14:47Z</time>
      </trkpt>
      <trkpt lat="45.08989" lon="0.67043">
        <ele>173.17</ele>
        <time>2019-04-18T14:15:02Z</time>
      </trkpt>
      <trkpt lat="45.08989" lon="0.67059">
        <ele>173.66</ele>
        <time>2019-04-18T14:15:16Z</time>
      </trkpt>
      <trkpt lat="45.08988" lon="0.6707">
        <ele>174.62</ele>
        <time>2019-04-18T14:15:32Z</time>
      </trkpt>
      <trkpt lat="45.08988" lon="0.67075">
        <ele>174.62</ele>
        <time>2019-04-18T14:15:54Z</time>
      </trkpt>
      <trkpt lat="45.08989" lon="0.67081">
        <ele>175.1</ele>
        <time>2019-04-18T14:16:28Z</time>
      </trkpt>
      <trkpt lat="45.08985" lon="0.6708">
        <ele>175.1</ele>
        <time>2019-04-18T14:16:49Z</time>
      </trkpt>
      <trkpt lat="45.08983" lon="0.67081">
        <ele>175.1</ele>
        <time>2019-04-18T14:17:19Z</time>
      </trkpt>
      <trkpt lat="45.08981" lon="0.6708">
        <ele>175.1</ele>
        <time>2019-04-18T14:17:50Z</time>
      </trkpt>
      <trkpt lat="45.08981" lon="0.6708">
        <ele>175.1</ele>
        <time>2019-04-18T14:18:16Z</time>
      </trkpt>
      <trkpt lat="45.0898" lon="0.67078">
        <ele>175.1</ele>
        <time>2019-04-18T14:18:45Z</time>
      </trkpt>
      <trkpt lat="45.08982" lon="0.67077">
        <ele>175.1</ele>
        <time>2019-04-18T14:19:15Z</time>
      </trkpt>
      <trkpt lat="45.08983" lon="0.67083">
        <ele>175.1</ele>
        <time>2019-04-18T14:19:40Z</time>
      </trkpt>
      <trkpt lat="45.08984" lon="0.67102">
        <ele>175.1</ele>
        <time>2019-04-18T14:19:57Z</time>
      </trkpt>
      <trkpt lat="45.08988" lon="0.67124">
        <ele>175.1</ele>
        <time>2019-04-18T14:20:15Z</time>
      </trkpt>
      <trkpt lat="45.08996" lon="0.6715">
        <ele>175.1</ele>
        <time>2019-04-18T14:20:33Z</time>
      </trkpt>
      <trkpt lat="45.08998" lon="0.67158">
        <ele>175.1</ele>
        <time>2019-04-18T14:20:39Z</time>
      </trkpt>
      <trkpt lat="45.09" lon="0.67165">
        <ele>175.58</ele>
        <time>2019-04-18T14:20:43Z</time>
      </trkpt>
      <trkpt lat="45.09001" lon="0.67171">
        <ele>177.98</ele>
        <time>2019-04-18T14:20:47Z</time>
      </trkpt>
      <trkpt lat="45.09014" lon="0.67201">
        <ele>177.98</ele>
        <time>2019-04-18T14:21:08Z</time>
      </trkpt>
      <trkpt lat="45.09027" lon="0.67221">
        <ele>177.98</ele>
        <time>2019-04-18T14:21:26Z</time>
      </trkpt>
      <trkpt lat="45.09038" lon="0.67249">
        <ele>178.46</ele>
        <time>2019-04-18T14:21:50Z</time>
      </trkpt>
      <trkpt lat="45.09048" lon="0.67271">
        <ele>178.94</ele>
        <time>2019-04-18T14:22:08Z</time>
      </trkpt>
      <trkpt lat="45.09055" lon="0.67292">
        <ele>179.42</ele>
        <time>2019-04-18T14:22:23Z</time>
      </trkpt>
      <trkpt lat="45.0906" lon="0.67311">
        <ele>179.9</ele>
        <time>2019-04-18T14:22:38Z</time>
      </trkpt>
      <trkpt lat="45.09063" lon="0.67331">
        <ele>180.38</ele>
        <time>2019-04-18T14:22:53Z</time>
      </trkpt>
      <trkpt lat="45.09067" lon="0.67356">
        <ele>180.38</ele>
        <time>2019-04-18T14:23:10Z</time>
      </trkpt>
      <trkpt lat="45.0907" lon="0.67371">
        <ele>180.87</ele>
        <time>2019-04-18T14:23:22Z</time>
      </trkpt>
      <trkpt lat="45.09077" lon="0.67387">
        <ele>181.35</ele>
        <time>2019-04-18T14:23:36Z</time>
      </trkpt>
      <trkpt lat="45.09085" lon="0.67394">
        <ele>181.83</ele>
        <time>2019-04-18T14:23:49Z</time>
      </trkpt>
      <trkpt lat="45.09095" lon="0.67391">
        <ele>182.31</ele>
        <time>2019-04-18T14:24:04Z</time>
      </trkpt>
      <trkpt lat="45.09106" lon="0.67386">
        <ele>183.75</ele>
        <time>2019-04-18T14:24:20Z</time>
      </trkpt>
      <trkpt lat="45.09121" lon="0.67383">
        <ele>185.67</ele>
        <time>2019-04-18T14:24:37Z</time>
      </trkpt>
      <trkpt lat="45.0913" lon="0.67383">
        <ele>187.59</ele>
        <time>2019-04-18T14:24:52Z</time>
      </trkpt>
      <trkpt lat="45.09142" lon="0.67391">
        <ele>190</ele>
        <time>2019-04-18T14:25:07Z</time>
      </trkpt>
      <trkpt lat="45.09152" lon="0.67403">
        <ele>192.4</ele>
        <time>2019-04-18T14:25:23Z</time>
      </trkpt>
      <trkpt lat="45.09159" lon="0.67416">
        <ele>194.8</ele>
        <time>2019-04-18T14:25:38Z</time>
      </trkpt>
      <trkpt lat="45.09164" lon="0.67426">
        <ele>197.21</ele>
        <time>2019-04-18T14:25:51Z</time>
      </trkpt>
      <trkpt lat="45.09169" lon="0.67441">
        <ele>199.61</ele>
        <time>2019-04-18T14:26:08Z</time>
      </trkpt>
      <trkpt lat="45.09171" lon="0.67452">
        <ele>201.53</ele>
        <time>2019-04-18T14:26:21Z</time>
      </trkpt>
      <trkpt lat="45.09175" lon="0.67466">
        <ele>204.42</ele>
        <time>2019-04-18T14:26:37Z</time>
      </trkpt>
      <trkpt lat="45.09179" lon="0.67481">
        <ele>206.82</ele>
        <time>2019-04-18T14:26:54Z</time>
      </trkpt>
      <trkpt lat="45.09179" lon="0.67496">
        <ele>209.22</ele>
        <time>2019-04-18T14:27:09Z</time>
      </trkpt>
      <trkpt lat="45.09176" lon="0.67513">
        <ele>212.59</ele>
        <time>2019-04-18T14:27:27Z</time>
      </trkpt>
      <trkpt lat="45.09172" lon="0.67529">
        <ele>214.99</ele>
        <time>2019-04-18T14:27:44Z</time>
      </trkpt>
      <trkpt lat="45.09164" lon="0.67545">
        <ele>217.4</ele>
        <time>2019-04-18T14:28:02Z</time>
      </trkpt>
      <trkpt lat="45.09161" lon="0.67562">
        <ele>219.8</ele>
        <time>2019-04-18T14:28:18Z</time>
      </trkpt>
      <trkpt lat="45.09157" lon="0.67587">
        <ele>222.2</ele>
        <time>2019-04-18T14:28:35Z</time>
      </trkpt>
      <trkpt lat="45.09154" lon="0.67606">
        <ele>224.61</ele>
        <time>2019-04-18T14:28:52Z</time>
      </trkpt>
      <trkpt lat="45.09153" lon="0.67606">
        <ele>225.09</ele>
        <time>2019-04-18T14:29:18Z</time>
      </trkpt>
      <trkpt lat="45.09154" lon="0.67606">
        <ele>225.09</ele>
        <time>2019-04-18T14:29:47Z</time>
      </trkpt>
      <trkpt lat="45.09153" lon="0.67605">
        <ele>225.09</ele>
        <time>2019-04-18T14:30:10Z</time>
      </trkpt>
      <trkpt lat="45.09152" lon="0.6761">
        <ele>225.09</ele>
        <time>2019-04-18T14:30:40Z</time>
      </trkpt>
      <trkpt lat="45.09151" lon="0.6763">
        <ele>226.53</ele>
        <time>2019-04-18T14:30:56Z</time>
      </trkpt>
      <trkpt lat="45.0915" lon="0.67633">
        <ele>227.01</ele>
        <time>2019-04-18T14:30:58Z</time>
      </trkpt>
      <trkpt lat="45.09151" lon="0.67655">
        <ele>228.45</ele>
        <time>2019-04-18T14:31:17Z</time>
      </trkpt>
      <trkpt lat="45.09151" lon="0.6768">
        <ele>228.93</ele>
        <time>2019-04-18T14:31:36Z</time>
      </trkpt>
      <trkpt lat="45.09154" lon="0.67687">
        <ele>229.41</ele>
        <time>2019-04-18T14:31:51Z</time>
      </trkpt>
      <trkpt lat="45.09158" lon="0.67686">
        <ele>229.41</ele>
        <time>2019-04-18T14:32:05Z</time>
      </trkpt>
      <trkpt lat="45.0916" lon="0.67686">
        <ele>229.41</ele>
        <time>2019-04-18T14:32:07Z</time>
      </trkpt>
      <trkpt lat="45.0917" lon="0.67689">
        <ele>230.37</ele>
        <time>2019-04-18T14:32:25Z</time>
      </trkpt>
      <trkpt lat="45.09174" lon="0.67696">
        <ele>230.85</ele>
        <time>2019-04-18T14:32:33Z</time>
      </trkpt>
      <trkpt lat="45.09189" lon="0.67717">
        <ele>231.33</ele>
        <time>2019-04-18T14:32:54Z</time>
      </trkpt>
      <trkpt lat="45.09203" lon="0.67719">
        <ele>232.3</ele>
        <time>2019-04-18T14:33:11Z</time>
      </trkpt>
      <trkpt lat="45.09203" lon="0.6772">
        <ele>232.3</ele>
        <time>2019-04-18T14:33:12Z</time>
      </trkpt>
      <trkpt lat="45.09204" lon="0.67721">
        <ele>232.3</ele>
        <time>2019-04-18T14:33:13Z</time>
      </trkpt>
      <trkpt lat="45.09205" lon="0.67722">
        <ele>232.3</ele>
        <time>2019-04-18T14:33:14Z</time>
      </trkpt>
      <trkpt lat="45.09206" lon="0.67723">
        <ele>232.3</ele>
        <time>2019-04-18T14:33:15Z</time>
      </trkpt>
      <trkpt lat="45.09206" lon="0.67725">
        <ele>232.3</ele>
        <time>2019-04-18T14:33:16Z</time>
      </trkpt>
      <trkpt lat="45.09215" lon="0.67738">
        <ele>232.3</ele>
        <time>2019-04-18T14:33:36Z</time>
      </trkpt>
      <trkpt lat="45.09215" lon="0.67737">
        <ele>231.81</ele>
        <time>2019-04-18T14:33:57Z</time>
      </trkpt>
      <trkpt lat="45.09218" lon="0.67739">
        <ele>231.81</ele>
        <time>2019-04-18T14:34:14Z</time>
      </trkpt>
      <trkpt lat="45.09218" lon="0.67743">
        <ele>231.81</ele>
        <time>2019-04-18T14:34:27Z</time>
      </trkpt>
      <trkpt lat="45.09219" lon="0.67747">
        <ele>231.81</ele>
        <time>2019-04-18T14:34:33Z</time>
      </trkpt>
      <trkpt lat="45.09204" lon="0.67688">
        <ele>227.97</ele>
        <time>2019-04-18T11:40:58Z</time>
      </trkpt>
      <trkpt lat="45.09204" lon="0.67688">
        <ele>227.97</ele>
        <time>2019-04-18T11:40:58Z</time>
      </trkpt>
      <trkpt lat="45.09227" lon="0.67681">
        <ele>227.97</ele>
        <time>2019-04-18T11:41:09Z</time>
      </trkpt>
      <trkpt lat="45.09233" lon="0.6768">
        <ele>227.49</ele>
        <time>2019-04-18T11:41:11Z</time>
      </trkpt>
      <trkpt lat="45.09235" lon="0.6768">
        <ele>227.49</ele>
        <time>2019-04-18T11:41:12Z</time>
      </trkpt>
      <trkpt lat="45.09239" lon="0.67679">
        <ele>227.49</ele>
        <time>2019-04-18T11:41:14Z</time>
      </trkpt>
      <trkpt lat="45.09241" lon="0.67679">
        <ele>227.49</ele>
        <time>2019-04-18T11:41:15Z</time>
      </trkpt>
      <trkpt lat="45.09242" lon="0.67679">
        <ele>227.49</ele>
        <time>2019-04-18T11:41:16Z</time>
      </trkpt>
      <trkpt lat="45.09244" lon="0.67679">
        <ele>227.49</ele>
        <time>2019-04-18T11:41:17Z</time>
      </trkpt>
      <trkpt lat="45.09245" lon="0.67679">
        <ele>227.01</ele>
        <time>2019-04-18T11:41:18Z</time>
      </trkpt>
      <trkpt lat="45.09268" lon="0.67674">
        <ele>226.05</ele>
        <time>2019-04-18T11:41:38Z</time>
      </trkpt>
      <trkpt lat="45.09299" lon="0.67664">
        <ele>225.09</ele>
        <time>2019-04-18T11:42:02Z</time>
      </trkpt>
      <trkpt lat="45.09298" lon="0.67654">
        <ele>224.61</ele>
        <time>2019-04-18T11:42:23Z</time>
      </trkpt>
      <trkpt lat="45.09317" lon="0.67649">
        <ele>225.09</ele>
        <time>2019-04-18T11:42:41Z</time>
      </trkpt>
      <trkpt lat="45.09335" lon="0.67643">
        <ele>226.05</ele>
        <time>2019-04-18T11:43:00Z</time>
      </trkpt>
      <trkpt lat="45.09358" lon="0.67637">
        <ele>228.45</ele>
        <time>2019-04-18T11:43:22Z</time>
      </trkpt>
      <trkpt lat="45.0938" lon="0.67632">
        <ele>230.37</ele>
        <time>2019-04-18T11:43:44Z</time>
      </trkpt>
      <trkpt lat="45.094" lon="0.67628">
        <ele>232.3</ele>
        <time>2019-04-18T11:44:04Z</time>
      </trkpt>
      <trkpt lat="45.09418" lon="0.67626">
        <ele>234.22</ele>
        <time>2019-04-18T11:44:23Z</time>
      </trkpt>
      <trkpt lat="45.09426" lon="0.67624">
        <ele>235.18</ele>
        <time>2019-04-18T11:44:37Z</time>
      </trkpt>
      <trkpt lat="45.09426" lon="0.67624">
        <ele>235.18</ele>
        <time>2019-04-18T11:44:59Z</time>
      </trkpt>
      <trkpt lat="45.0943" lon="0.67621">
        <ele>235.18</ele>
        <time>2019-04-18T11:45:15Z</time>
      </trkpt>
      <trkpt lat="45.09444" lon="0.6762">
        <ele>235.66</ele>
        <time>2019-04-18T11:45:32Z</time>
      </trkpt>
      <trkpt lat="45.09461" lon="0.67619">
        <ele>236.62</ele>
        <time>2019-04-18T11:45:50Z</time>
      </trkpt>
      <trkpt lat="45.09469" lon="0.67616">
        <ele>237.1</ele>
        <time>2019-04-18T11:45:59Z</time>
      </trkpt>
      <trkpt lat="45.09487" lon="0.67604">
        <ele>237.58</ele>
        <time>2019-04-18T11:46:19Z</time>
      </trkpt>
      <trkpt lat="45.09505" lon="0.67591">
        <ele>237.58</ele>
        <time>2019-04-18T11:46:39Z</time>
      </trkpt>
      <trkpt lat="45.0952" lon="0.67581">
        <ele>237.58</ele>
        <time>2019-04-18T11:46:57Z</time>
      </trkpt>
      <trkpt lat="45.09533" lon="0.67569">
        <ele>237.58</ele>
        <time>2019-04-18T11:47:11Z</time>
      </trkpt>
      <trkpt lat="45.09535" lon="0.67569">
        <ele>237.58</ele>
        <time>2019-04-18T11:47:12Z</time>
      </trkpt>
      <trkpt lat="45.09551" lon="0.67557">
        <ele>236.62</ele>
        <time>2019-04-18T11:47:30Z</time>
      </trkpt>
      <trkpt lat="45.0957" lon="0.67542">
        <ele>236.14</ele>
        <time>2019-04-18T11:47:50Z</time>
      </trkpt>
      <trkpt lat="45.09593" lon="0.67525">
        <ele>235.18</ele>
        <time>2019-04-18T11:48:13Z</time>
      </trkpt>
      <trkpt lat="45.09616" lon="0.67506">
        <ele>234.7</ele>
        <time>2019-04-18T11:48:38Z</time>
      </trkpt>
      <trkpt lat="45.09638" lon="0.6749">
        <ele>235.18</ele>
        <time>2019-04-18T11:49:01Z</time>
      </trkpt>
      <trkpt lat="45.09657" lon="0.67471">
        <ele>236.14</ele>
        <time>2019-04-18T11:49:25Z</time>
      </trkpt>
      <trkpt lat="45.09656" lon="0.67465">
        <ele>236.62</ele>
        <time>2019-04-18T11:49:31Z</time>
      </trkpt>
      <trkpt lat="45.09649" lon="0.67455">
        <ele>237.1</ele>
        <time>2019-04-18T11:49:41Z</time>
      </trkpt>
      <trkpt lat="45.0964" lon="0.67438">
        <ele>237.58</ele>
        <time>2019-04-18T11:49:56Z</time>
      </trkpt>
      <trkpt lat="45.0963" lon="0.67418">
        <ele>238.06</ele>
        <time>2019-04-18T11:50:12Z</time>
      </trkpt>
      <trkpt lat="45.0962" lon="0.67395">
        <ele>238.06</ele>
        <time>2019-04-18T11:50:29Z</time>
      </trkpt>
      <trkpt lat="45.0961" lon="0.67378">
        <ele>238.54</ele>
        <time>2019-04-18T11:50:46Z</time>
      </trkpt>
      <trkpt lat="45.09597" lon="0.6736">
        <ele>238.54</ele>
        <time>2019-04-18T11:51:05Z</time>
      </trkpt>
      <trkpt lat="45.09595" lon="0.67346">
        <ele>237.58</ele>
        <time>2019-04-18T11:51:21Z</time>
      </trkpt>
      <trkpt lat="45.09587" lon="0.6733">
        <ele>236.62</ele>
        <time>2019-04-18T11:51:37Z</time>
      </trkpt>
      <trkpt lat="45.09586" lon="0.67328">
        <ele>236.62</ele>
        <time>2019-04-18T11:51:39Z</time>
      </trkpt>
      <trkpt lat="45.09577" lon="0.67313">
        <ele>235.66</ele>
        <time>2019-04-18T11:51:53Z</time>
      </trkpt>
      <trkpt lat="45.09566" lon="0.67289">
        <ele>234.22</ele>
        <time>2019-04-18T11:52:12Z</time>
      </trkpt>
      <trkpt lat="45.09559" lon="0.67268">
        <ele>232.78</ele>
        <time>2019-04-18T11:52:29Z</time>
      </trkpt>
      <trkpt lat="45.09551" lon="0.67248">
        <ele>230.85</ele>
        <time>2019-04-18T11:52:46Z</time>
      </trkpt>
      <trkpt lat="45.09541" lon="0.67227">
        <ele>228.93</ele>
        <time>2019-04-18T11:53:04Z</time>
      </trkpt>
      <trkpt lat="45.0953" lon="0.67205">
        <ele>227.97</ele>
        <time>2019-04-18T11:53:21Z</time>
      </trkpt>
      <trkpt lat="45.0952" lon="0.67182">
        <ele>227.49</ele>
        <time>2019-04-18T11:53:40Z</time>
      </trkpt>
      <trkpt lat="45.09512" lon="0.67155">
        <ele>227.49</ele>
        <time>2019-04-18T11:54:01Z</time>
      </trkpt>
      <trkpt lat="45.09505" lon="0.67137">
        <ele>227.49</ele>
        <time>2019-04-18T11:54:17Z</time>
      </trkpt>
      <trkpt lat="45.09495" lon="0.67112">
        <ele>228.45</ele>
        <time>2019-04-18T11:54:35Z</time>
      </trkpt>
      <trkpt lat="45.09487" lon="0.6709">
        <ele>228.93</ele>
        <time>2019-04-18T11:54:53Z</time>
      </trkpt>
      <trkpt lat="45.0949" lon="0.6707">
        <ele>228.45</ele>
        <time>2019-04-18T11:55:10Z</time>
      </trkpt>
      <trkpt lat="45.09491" lon="0.67059">
        <ele>227.97</ele>
        <time>2019-04-18T11:55:18Z</time>
      </trkpt>
      <trkpt lat="45.09496" lon="0.67035">
        <ele>227.49</ele>
        <time>2019-04-18T11:55:34Z</time>
      </trkpt>
      <trkpt lat="45.09499" lon="0.67015">
        <ele>227.01</ele>
        <time>2019-04-18T11:55:48Z</time>
      </trkpt>
      <trkpt lat="45.095" lon="0.66992">
        <ele>227.01</ele>
        <time>2019-04-18T11:56:04Z</time>
      </trkpt>
      <trkpt lat="45.09501" lon="0.66987">
        <ele>227.01</ele>
        <time>2019-04-18T11:56:07Z</time>
      </trkpt>
      <trkpt lat="45.09502" lon="0.66965">
        <ele>226.53</ele>
        <time>2019-04-18T11:56:23Z</time>
      </trkpt>
      <trkpt lat="45.09504" lon="0.66954">
        <ele>226.53</ele>
        <time>2019-04-18T11:56:30Z</time>
      </trkpt>
      <trkpt lat="45.09508" lon="0.66928">
        <ele>227.01</ele>
        <time>2019-04-18T11:56:47Z</time>
      </trkpt>
      <trkpt lat="45.09509" lon="0.66926">
        <ele>227.01</ele>
        <time>2019-04-18T11:56:48Z</time>
      </trkpt>
      <trkpt lat="45.0951" lon="0.66903">
        <ele>226.53</ele>
        <time>2019-04-18T11:57:05Z</time>
      </trkpt>
      <trkpt lat="45.09512" lon="0.66881">
        <ele>226.05</ele>
        <time>2019-04-18T11:57:19Z</time>
      </trkpt>
      <trkpt lat="45.09517" lon="0.66861">
        <ele>225.09</ele>
        <time>2019-04-18T11:57:34Z</time>
      </trkpt>
      <trkpt lat="45.09525" lon="0.66843">
        <ele>224.12</ele>
        <time>2019-04-18T11:57:48Z</time>
      </trkpt>
      <trkpt lat="45.09529" lon="0.66828">
        <ele>223.64</ele>
        <time>2019-04-18T11:57:59Z</time>
      </trkpt>
      <trkpt lat="45.09531" lon="0.66809">
        <ele>222.68</ele>
        <time>2019-04-18T11:58:15Z</time>
      </trkpt>
      <trkpt lat="45.09532" lon="0.66806">
        <ele>222.68</ele>
        <time>2019-04-18T11:58:17Z</time>
      </trkpt>
      <trkpt lat="45.09539" lon="0.66781">
        <ele>222.2</ele>
        <time>2019-04-18T11:58:34Z</time>
      </trkpt>
      <trkpt lat="45.09547" lon="0.66762">
        <ele>223.16</ele>
        <time>2019-04-18T11:58:49Z</time>
      </trkpt>
      <trkpt lat="45.09557" lon="0.66741">
        <ele>223.64</ele>
        <time>2019-04-18T11:59:06Z</time>
      </trkpt>
      <trkpt lat="45.09568" lon="0.66723">
        <ele>224.61</ele>
        <time>2019-04-18T11:59:22Z</time>
      </trkpt>
      <trkpt lat="45.0958" lon="0.66709">
        <ele>224.61</ele>
        <time>2019-04-18T11:59:37Z</time>
      </trkpt>
      <trkpt lat="45.09584" lon="0.66705">
        <ele>224.61</ele>
        <time>2019-04-18T11:59:53Z</time>
      </trkpt>
      <trkpt lat="45.09585" lon="0.667">
        <ele>224.61</ele>
        <time>2019-04-18T12:00:15Z</time>
      </trkpt>
      <trkpt lat="45.09586" lon="0.66698">
        <ele>224.61</ele>
        <time>2019-04-18T12:00:39Z</time>
      </trkpt>
      <trkpt lat="45.09591" lon="0.66696">
        <ele>224.61</ele>
        <time>2019-04-18T12:00:49Z</time>
      </trkpt>
      <trkpt lat="45.09595" lon="0.66689">
        <ele>224.12</ele>
        <time>2019-04-18T12:00:56Z</time>
      </trkpt>
      <trkpt lat="45.096" lon="0.66682">
        <ele>224.12</ele>
        <time>2019-04-18T12:01:03Z</time>
      </trkpt>
      <trkpt lat="45.09601" lon="0.66681">
        <ele>224.12</ele>
        <time>2019-04-18T12:01:04Z</time>
      </trkpt>
      <trkpt lat="45.09613" lon="0.66661">
        <ele>222.68</ele>
        <time>2019-04-18T12:01:22Z</time>
      </trkpt>
      <trkpt lat="45.0962" lon="0.66651">
        <ele>222.2</ele>
        <time>2019-04-18T12:01:32Z</time>
      </trkpt>
      <trkpt lat="45.09621" lon="0.6665">
        <ele>222.2</ele>
        <time>2019-04-18T12:01:33Z</time>
      </trkpt>
      <trkpt lat="45.09621" lon="0.66649">
        <ele>222.2</ele>
        <time>2019-04-18T12:01:34Z</time>
      </trkpt>
      <trkpt lat="45.09622" lon="0.66648">
        <ele>222.2</ele>
        <time>2019-04-18T12:01:35Z</time>
      </trkpt>
      <trkpt lat="45.09635" lon="0.66627">
        <ele>220.76</ele>
        <time>2019-04-18T12:01:54Z</time>
      </trkpt>
      <trkpt lat="45.0965" lon="0.66604">
        <ele>220.76</ele>
        <time>2019-04-18T12:02:16Z</time>
      </trkpt>
      <trkpt lat="45.09655" lon="0.66599">
        <ele>220.28</ele>
        <time>2019-04-18T12:02:29Z</time>
      </trkpt>
      <trkpt lat="45.09665" lon="0.66586">
        <ele>220.28</ele>
        <time>2019-04-18T12:02:43Z</time>
      </trkpt>
      <trkpt lat="45.0967" lon="0.66576">
        <ele>220.28</ele>
        <time>2019-04-18T12:02:52Z</time>
      </trkpt>
      <trkpt lat="45.0968" lon="0.66564">
        <ele>219.8</ele>
        <time>2019-04-18T12:03:04Z</time>
      </trkpt>
      <trkpt lat="45.0968" lon="0.66562">
        <ele>219.8</ele>
        <time>2019-04-18T12:03:05Z</time>
      </trkpt>
      <trkpt lat="45.09683" lon="0.66558">
        <ele>220.28</ele>
        <time>2019-04-18T12:03:09Z</time>
      </trkpt>
      <trkpt lat="45.09684" lon="0.66557">
        <ele>220.28</ele>
        <time>2019-04-18T12:03:10Z</time>
      </trkpt>
      <trkpt lat="45.09694" lon="0.66541">
        <ele>220.28</ele>
        <time>2019-04-18T12:03:24Z</time>
      </trkpt>
      <trkpt lat="45.09701" lon="0.66527">
        <ele>220.76</ele>
        <time>2019-04-18T12:03:35Z</time>
      </trkpt>
      <trkpt lat="45.09704" lon="0.66523">
        <ele>220.76</ele>
        <time>2019-04-18T12:03:38Z</time>
      </trkpt>
      <trkpt lat="45.09707" lon="0.66519">
        <ele>220.76</ele>
        <time>2019-04-18T12:03:42Z</time>
      </trkpt>
      <trkpt lat="45.0971" lon="0.66514">
        <ele>220.76</ele>
        <time>2019-04-18T12:03:46Z</time>
      </trkpt>
      <trkpt lat="45.09717" lon="0.66495">
        <ele>220.76</ele>
        <time>2019-04-18T12:04:01Z</time>
      </trkpt>
      <trkpt lat="45.09722" lon="0.66478">
        <ele>222.2</ele>
        <time>2019-04-18T12:04:15Z</time>
      </trkpt>
      <trkpt lat="45.09722" lon="0.66454">
        <ele>222.68</ele>
        <time>2019-04-18T12:04:31Z</time>
      </trkpt>
      <trkpt lat="45.09727" lon="0.66431">
        <ele>222.2</ele>
        <time>2019-04-18T12:04:47Z</time>
      </trkpt>
      <trkpt lat="45.09731" lon="0.66406">
        <ele>220.76</ele>
        <time>2019-04-18T12:05:03Z</time>
      </trkpt>
      <trkpt lat="45.09737" lon="0.66382">
        <ele>219.8</ele>
        <time>2019-04-18T12:05:19Z</time>
      </trkpt>
      <trkpt lat="45.09744" lon="0.66367">
        <ele>219.32</ele>
        <time>2019-04-18T12:05:32Z</time>
      </trkpt>
      <trkpt lat="45.09751" lon="0.66357">
        <ele>219.8</ele>
        <time>2019-04-18T12:05:40Z</time>
      </trkpt>
      <trkpt lat="45.09759" lon="0.66338">
        <ele>221.24</ele>
        <time>2019-04-18T12:05:55Z</time>
      </trkpt>
      <trkpt lat="45.09762" lon="0.66332">
        <ele>221.24</ele>
        <time>2019-04-18T12:06:00Z</time>
      </trkpt>
      <trkpt lat="45.09766" lon="0.66312">
        <ele>221.72</ele>
        <time>2019-04-18T12:06:15Z</time>
      </trkpt>
      <trkpt lat="45.09777" lon="0.66283">
        <ele>221.72</ele>
        <time>2019-04-18T12:06:37Z</time>
      </trkpt>
      <trkpt lat="45.09787" lon="0.66258">
        <ele>220.76</ele>
        <time>2019-04-18T12:06:58Z</time>
      </trkpt>
      <trkpt lat="45.09798" lon="0.66229">
        <ele>218.36</ele>
        <time>2019-04-18T12:07:20Z</time>
      </trkpt>
      <trkpt lat="45.09804" lon="0.66214">
        <ele>217.4</ele>
        <time>2019-04-18T12:07:35Z</time>
      </trkpt>
      <trkpt lat="45.09814" lon="0.66195">
        <ele>215.95</ele>
        <time>2019-04-18T12:07:52Z</time>
      </trkpt>
      <trkpt lat="45.09823" lon="0.6618">
        <ele>215.95</ele>
        <time>2019-04-18T12:08:05Z</time>
      </trkpt>
      <trkpt lat="45.09834" lon="0.66162">
        <ele>215.95</ele>
        <time>2019-04-18T12:08:21Z</time>
      </trkpt>
      <trkpt lat="45.09844" lon="0.66149">
        <ele>216.43</ele>
        <time>2019-04-18T12:08:37Z</time>
      </trkpt>
      <trkpt lat="45.09859" lon="0.66134">
        <ele>217.4</ele>
        <time>2019-04-18T12:08:55Z</time>
      </trkpt>
      <trkpt lat="45.09862" lon="0.6613">
        <ele>217.4</ele>
        <time>2019-04-18T12:08:59Z</time>
      </trkpt>
      <trkpt lat="45.09876" lon="0.66123">
        <ele>218.36</ele>
        <time>2019-04-18T12:09:14Z</time>
      </trkpt>
      <trkpt lat="45.09892" lon="0.66119">
        <ele>219.32</ele>
        <time>2019-04-18T12:09:29Z</time>
      </trkpt>
      <trkpt lat="45.09899" lon="0.66117">
        <ele>219.8</ele>
        <time>2019-04-18T12:09:38Z</time>
      </trkpt>
      <trkpt lat="45.099" lon="0.66117">
        <ele>219.8</ele>
        <time>2019-04-18T12:09:39Z</time>
      </trkpt>
      <trkpt lat="45.09919" lon="0.66111">
        <ele>219.8</ele>
        <time>2019-04-18T12:09:56Z</time>
      </trkpt>
      <trkpt lat="45.09933" lon="0.66108">
        <ele>219.8</ele>
        <time>2019-04-18T12:10:12Z</time>
      </trkpt>
      <trkpt lat="45.09949" lon="0.66103">
        <ele>219.32</ele>
        <time>2019-04-18T12:10:28Z</time>
      </trkpt>
      <trkpt lat="45.09965" lon="0.66102">
        <ele>218.84</ele>
        <time>2019-04-18T12:10:42Z</time>
      </trkpt>
      <trkpt lat="45.09978" lon="0.66098">
        <ele>218.84</ele>
        <time>2019-04-18T12:10:55Z</time>
      </trkpt>
      <trkpt lat="45.0998" lon="0.66097">
        <ele>218.84</ele>
        <time>2019-04-18T12:10:56Z</time>
      </trkpt>
      <trkpt lat="45.09996" lon="0.66088">
        <ele>217.88</ele>
        <time>2019-04-18T12:11:11Z</time>
      </trkpt>
      <trkpt lat="45.10001" lon="0.66086">
        <ele>217.4</ele>
        <time>2019-04-18T12:11:17Z</time>
      </trkpt>
      <trkpt lat="45.10005" lon="0.66085">
        <ele>217.4</ele>
        <time>2019-04-18T12:11:21Z</time>
      </trkpt>
      <trkpt lat="45.10035" lon="0.66076">
        <ele>215.95</ele>
        <time>2019-04-18T12:11:48Z</time>
      </trkpt>
      <trkpt lat="45.10043" lon="0.66079">
        <ele>214.99</ele>
        <time>2019-04-18T12:12:05Z</time>
      </trkpt>
      <trkpt lat="45.10045" lon="0.6608">
        <ele>214.99</ele>
        <time>2019-04-18T12:12:16Z</time>
      </trkpt>
      <trkpt lat="45.10046" lon="0.66081">
        <ele>214.99</ele>
        <time>2019-04-18T12:12:17Z</time>
      </trkpt>
      <trkpt lat="45.10049" lon="0.66082">
        <ele>214.99</ele>
        <time>2019-04-18T12:12:20Z</time>
      </trkpt>
      <trkpt lat="45.1005" lon="0.66082">
        <ele>214.51</ele>
        <time>2019-04-18T12:12:21Z</time>
      </trkpt>
      <trkpt lat="45.10051" lon="0.66082">
        <ele>214.51</ele>
        <time>2019-04-18T12:12:22Z</time>
      </trkpt>
      <trkpt lat="45.10069" lon="0.66087">
        <ele>213.55</ele>
        <time>2019-04-18T12:12:41Z</time>
      </trkpt>
      <trkpt lat="45.10086" lon="0.66091">
        <ele>211.63</ele>
        <time>2019-04-18T12:13:00Z</time>
      </trkpt>
      <trkpt lat="45.10095" lon="0.66085">
        <ele>211.15</ele>
        <time>2019-04-18T12:13:14Z</time>
      </trkpt>
      <trkpt lat="45.10093" lon="0.66057">
        <ele>212.59</ele>
        <time>2019-04-18T12:13:36Z</time>
      </trkpt>
      <trkpt lat="45.1009" lon="0.66034">
        <ele>213.55</ele>
        <time>2019-04-18T12:13:53Z</time>
      </trkpt>
      <trkpt lat="45.10088" lon="0.66009">
        <ele>213.55</ele>
        <time>2019-04-18T12:14:11Z</time>
      </trkpt>
      <trkpt lat="45.10087" lon="0.66006">
        <ele>213.55</ele>
        <time>2019-04-18T12:14:13Z</time>
      </trkpt>
      <trkpt lat="45.10082" lon="0.65987">
        <ele>214.03</ele>
        <time>2019-04-18T12:14:29Z</time>
      </trkpt>
      <trkpt lat="45.10068" lon="0.65986">
        <ele>214.99</ele>
        <time>2019-04-18T12:14:45Z</time>
      </trkpt>
      <trkpt lat="45.10062" lon="0.65986">
        <ele>214.99</ele>
        <time>2019-04-18T12:14:51Z</time>
      </trkpt>
      <trkpt lat="45.10042" lon="0.65984">
        <ele>216.43</ele>
        <time>2019-04-18T12:15:11Z</time>
      </trkpt>
      <trkpt lat="45.10025" lon="0.65984">
        <ele>218.36</ele>
        <time>2019-04-18T12:15:32Z</time>
      </trkpt>
      <trkpt lat="45.10004" lon="0.65985">
        <ele>218.84</ele>
        <time>2019-04-18T12:15:54Z</time>
      </trkpt>
      <trkpt lat="45.09981" lon="0.65984">
        <ele>220.28</ele>
        <time>2019-04-18T12:16:17Z</time>
      </trkpt>
      <trkpt lat="45.09977" lon="0.65981">
        <ele>220.76</ele>
        <time>2019-04-18T12:16:35Z</time>
      </trkpt>
      <trkpt lat="45.09977" lon="0.65977">
        <ele>220.28</ele>
        <time>2019-04-18T12:16:55Z</time>
      </trkpt>
      <trkpt lat="45.09976" lon="0.65976">
        <ele>219.8</ele>
        <time>2019-04-18T12:17:08Z</time>
      </trkpt>
      <trkpt lat="45.09977" lon="0.65974">
        <ele>220.28</ele>
        <time>2019-04-18T12:17:32Z</time>
      </trkpt>
      <trkpt lat="45.09977" lon="0.65973">
        <ele>219.8</ele>
        <time>2019-04-18T12:17:54Z</time>
      </trkpt>
      <trkpt lat="45.09979" lon="0.65969">
        <ele>219.8</ele>
        <time>2019-04-18T12:18:28Z</time>
      </trkpt>
      <trkpt lat="45.09982" lon="0.65966">
        <ele>219.32</ele>
        <time>2019-04-18T12:18:34Z</time>
      </trkpt>
      <trkpt lat="45.09983" lon="0.65965">
        <ele>219.32</ele>
        <time>2019-04-18T12:18:35Z</time>
      </trkpt>
      <trkpt lat="45.1" lon="0.65943">
        <ele>217.4</ele>
        <time>2019-04-18T12:18:57Z</time>
      </trkpt>
      <trkpt lat="45.10011" lon="0.65914">
        <ele>214.99</ele>
        <time>2019-04-18T12:19:20Z</time>
      </trkpt>
      <trkpt lat="45.10015" lon="0.65889">
        <ele>212.11</ele>
        <time>2019-04-18T12:19:36Z</time>
      </trkpt>
      <trkpt lat="45.10019" lon="0.65861">
        <ele>209.22</ele>
        <time>2019-04-18T12:19:53Z</time>
      </trkpt>
      <trkpt lat="45.10024" lon="0.65837">
        <ele>206.82</ele>
        <time>2019-04-18T12:20:08Z</time>
      </trkpt>
      <trkpt lat="45.10024" lon="0.65831">
        <ele>206.34</ele>
        <time>2019-04-18T12:20:12Z</time>
      </trkpt>
      <trkpt lat="45.10024" lon="0.6582">
        <ele>205.38</ele>
        <time>2019-04-18T12:20:19Z</time>
      </trkpt>
      <trkpt lat="45.10024" lon="0.65818">
        <ele>205.38</ele>
        <time>2019-04-18T12:20:20Z</time>
      </trkpt>
      <trkpt lat="45.10024" lon="0.65817">
        <ele>205.38</ele>
        <time>2019-04-18T12:20:21Z</time>
      </trkpt>
      <trkpt lat="45.10032" lon="0.65789">
        <ele>202.98</ele>
        <time>2019-04-18T12:20:37Z</time>
      </trkpt>
      <trkpt lat="45.10049" lon="0.6577">
        <ele>201.53</ele>
        <time>2019-04-18T12:20:55Z</time>
      </trkpt>
      <trkpt lat="45.10061" lon="0.65754">
        <ele>200.57</ele>
        <time>2019-04-18T12:21:11Z</time>
      </trkpt>
      <trkpt lat="45.10067" lon="0.65748">
        <ele>200.09</ele>
        <time>2019-04-18T12:21:17Z</time>
      </trkpt>
      <trkpt lat="45.10068" lon="0.65748">
        <ele>200.09</ele>
        <time>2019-04-18T12:21:18Z</time>
      </trkpt>
      <trkpt lat="45.10069" lon="0.65747">
        <ele>200.09</ele>
        <time>2019-04-18T12:21:19Z</time>
      </trkpt>
      <trkpt lat="45.10091" lon="0.65725">
        <ele>199.61</ele>
        <time>2019-04-18T12:21:41Z</time>
      </trkpt>
      <trkpt lat="45.10112" lon="0.65714">
        <ele>197.69</ele>
        <time>2019-04-18T12:22:00Z</time>
      </trkpt>
      <trkpt lat="45.10133" lon="0.65703">
        <ele>196.25</ele>
        <time>2019-04-18T12:22:20Z</time>
      </trkpt>
      <trkpt lat="45.10147" lon="0.65696">
        <ele>194.32</ele>
        <time>2019-04-18T12:22:35Z</time>
      </trkpt>
      <trkpt lat="45.10151" lon="0.65693">
        <ele>193.84</ele>
        <time>2019-04-18T12:22:39Z</time>
      </trkpt>
      <trkpt lat="45.10161" lon="0.65685">
        <ele>192.4</ele>
        <time>2019-04-18T12:22:50Z</time>
      </trkpt>
      <trkpt lat="45.10167" lon="0.6568">
        <ele>191.92</ele>
        <time>2019-04-18T12:22:56Z</time>
      </trkpt>
      <trkpt lat="45.1018" lon="0.65669">
        <ele>190</ele>
        <time>2019-04-18T12:23:09Z</time>
      </trkpt>
      <trkpt lat="45.10181" lon="0.65669">
        <ele>190</ele>
        <time>2019-04-18T12:23:10Z</time>
      </trkpt>
      <trkpt lat="45.10187" lon="0.65666">
        <ele>189.52</ele>
        <time>2019-04-18T12:23:16Z</time>
      </trkpt>
      <trkpt lat="45.10196" lon="0.65662">
        <ele>188.56</ele>
        <time>2019-04-18T12:23:23Z</time>
      </trkpt>
      <trkpt lat="45.102" lon="0.6566">
        <ele>187.59</ele>
        <time>2019-04-18T12:23:27Z</time>
      </trkpt>
      <trkpt lat="45.10201" lon="0.6566">
        <ele>187.59</ele>
        <time>2019-04-18T12:23:28Z</time>
      </trkpt>
      <trkpt lat="45.10216" lon="0.65654">
        <ele>184.23</ele>
        <time>2019-04-18T12:23:42Z</time>
      </trkpt>
      <trkpt lat="45.10233" lon="0.6565">
        <ele>181.35</ele>
        <time>2019-04-18T12:23:58Z</time>
      </trkpt>
      <trkpt lat="45.10248" lon="0.65647">
        <ele>177.98</ele>
        <time>2019-04-18T12:24:11Z</time>
      </trkpt>
      <trkpt lat="45.10256" lon="0.65639">
        <ele>175.58</ele>
        <time>2019-04-18T12:24:21Z</time>
      </trkpt>
      <trkpt lat="45.10257" lon="0.65638">
        <ele>175.58</ele>
        <time>2019-04-18T12:24:22Z</time>
      </trkpt>
      <trkpt lat="45.10259" lon="0.65621">
        <ele>173.17</ele>
        <time>2019-04-18T12:24:33Z</time>
      </trkpt>
      <trkpt lat="45.1026" lon="0.65619">
        <ele>173.17</ele>
        <time>2019-04-18T12:24:34Z</time>
      </trkpt>
      <trkpt lat="45.1026" lon="0.65618">
        <ele>173.17</ele>
        <time>2019-04-18T12:24:35Z</time>
      </trkpt>
      <trkpt lat="45.10261" lon="0.65616">
        <ele>172.69</ele>
        <time>2019-04-18T12:24:36Z</time>
      </trkpt>
      <trkpt lat="45.10263" lon="0.65603">
        <ele>170.77</ele>
        <time>2019-04-18T12:24:45Z</time>
      </trkpt>
      <trkpt lat="45.10263" lon="0.65598">
        <ele>170.29</ele>
        <time>2019-04-18T12:24:48Z</time>
      </trkpt>
      <trkpt lat="45.10262" lon="0.65596">
        <ele>170.29</ele>
        <time>2019-04-18T12:24:49Z</time>
      </trkpt>
      <trkpt lat="45.10266" lon="0.65566">
        <ele>167.41</ele>
        <time>2019-04-18T12:25:07Z</time>
      </trkpt>
      <trkpt lat="45.10267" lon="0.65561">
        <ele>166.93</ele>
        <time>2019-04-18T12:25:10Z</time>
      </trkpt>
      <trkpt lat="45.10267" lon="0.65559">
        <ele>166.45</ele>
        <time>2019-04-18T12:25:11Z</time>
      </trkpt>
      <trkpt lat="45.10268" lon="0.65557">
        <ele>166.45</ele>
        <time>2019-04-18T12:25:12Z</time>
      </trkpt>
      <trkpt lat="45.10268" lon="0.65554">
        <ele>165.96</ele>
        <time>2019-04-18T12:25:14Z</time>
      </trkpt>
      <trkpt lat="45.10268" lon="0.65552">
        <ele>165.96</ele>
        <time>2019-04-18T12:25:15Z</time>
      </trkpt>
      <trkpt lat="45.10269" lon="0.6555">
        <ele>165.96</ele>
        <time>2019-04-18T12:25:16Z</time>
      </trkpt>
      <trkpt lat="45.10268" lon="0.65532">
        <ele>164.04</ele>
        <time>2019-04-18T12:25:27Z</time>
      </trkpt>
      <trkpt lat="45.10267" lon="0.65531">
        <ele>164.04</ele>
        <time>2019-04-18T12:25:28Z</time>
      </trkpt>
      <trkpt lat="45.10267" lon="0.65529">
        <ele>163.56</ele>
        <time>2019-04-18T12:25:29Z</time>
      </trkpt>
      <trkpt lat="45.10267" lon="0.65528">
        <ele>163.56</ele>
        <time>2019-04-18T12:25:30Z</time>
      </trkpt>
      <trkpt lat="45.10266" lon="0.65526">
        <ele>163.56</ele>
        <time>2019-04-18T12:25:31Z</time>
      </trkpt>
      <trkpt lat="45.10261" lon="0.65502">
        <ele>161.64</ele>
        <time>2019-04-18T12:25:49Z</time>
      </trkpt>
      <trkpt lat="45.10252" lon="0.65473">
        <ele>158.75</ele>
        <time>2019-04-18T12:26:07Z</time>
      </trkpt>
      <trkpt lat="45.10247" lon="0.65455">
        <ele>156.83</ele>
        <time>2019-04-18T12:26:24Z</time>
      </trkpt>
      <trkpt lat="45.10247" lon="0.65453">
        <ele>156.83</ele>
        <time>2019-04-18T12:26:44Z</time>
      </trkpt>
      <trkpt lat="45.10244" lon="0.65438">
        <ele>156.83</ele>
        <time>2019-04-18T12:27:00Z</time>
      </trkpt>
      <trkpt lat="45.10239" lon="0.65414">
        <ele>156.83</ele>
        <time>2019-04-18T12:27:19Z</time>
      </trkpt>
      <trkpt lat="45.10235" lon="0.65391">
        <ele>158.27</ele>
        <time>2019-04-18T12:27:36Z</time>
      </trkpt>
      <trkpt lat="45.10227" lon="0.65369">
        <ele>159.24</ele>
        <time>2019-04-18T12:27:54Z</time>
      </trkpt>
      <trkpt lat="45.10222" lon="0.65357">
        <ele>159.24</ele>
        <time>2019-04-18T12:28:03Z</time>
      </trkpt>
      <trkpt lat="45.10212" lon="0.65327">
        <ele>159.24</ele>
        <time>2019-04-18T12:28:25Z</time>
      </trkpt>
      <trkpt lat="45.10202" lon="0.65301">
        <ele>158.75</ele>
        <time>2019-04-18T12:28:45Z</time>
      </trkpt>
      <trkpt lat="45.10186" lon="0.65272">
        <ele>161.16</ele>
        <time>2019-04-18T12:29:09Z</time>
      </trkpt>
      <trkpt lat="45.10171" lon="0.65247">
        <ele>161.64</ele>
        <time>2019-04-18T12:29:32Z</time>
      </trkpt>
      <trkpt lat="45.10167" lon="0.65239">
        <ele>162.6</ele>
        <time>2019-04-18T12:29:48Z</time>
      </trkpt>
      <trkpt lat="45.10167" lon="0.65237">
        <ele>162.6</ele>
        <time>2019-04-18T12:30:03Z</time>
      </trkpt>
      <trkpt lat="45.10167" lon="0.65236">
        <ele>162.6</ele>
        <time>2019-04-18T12:30:23Z</time>
      </trkpt>
      <trkpt lat="45.10167" lon="0.65235">
        <ele>162.6</ele>
        <time>2019-04-18T12:30:42Z</time>
      </trkpt>
      <trkpt lat="45.10166" lon="0.65234">
        <ele>163.08</ele>
        <time>2019-04-18T12:30:56Z</time>
      </trkpt>
      <trkpt lat="45.10161" lon="0.65226">
        <ele>163.08</ele>
        <time>2019-04-18T12:31:09Z</time>
      </trkpt>
      <trkpt lat="45.10152" lon="0.65215">
        <ele>165</ele>
        <time>2019-04-18T12:31:26Z</time>
      </trkpt>
      <trkpt lat="45.10141" lon="0.65198">
        <ele>167.89</ele>
        <time>2019-04-18T12:31:44Z</time>
      </trkpt>
      <trkpt lat="45.10128" lon="0.65187">
        <ele>170.29</ele>
        <time>2019-04-18T12:32:01Z</time>
      </trkpt>
      <trkpt lat="45.10116" lon="0.65175">
        <ele>172.69</ele>
        <time>2019-04-18T12:32:17Z</time>
      </trkpt>
      <trkpt lat="45.1011" lon="0.65167">
        <ele>174.14</ele>
        <time>2019-04-18T12:32:32Z</time>
      </trkpt>
      <trkpt lat="45.10106" lon="0.65164">
        <ele>174.62</ele>
        <time>2019-04-18T12:32:47Z</time>
      </trkpt>
      <trkpt lat="45.10098" lon="0.65157">
        <ele>175.58</ele>
        <time>2019-04-18T12:32:59Z</time>
      </trkpt>
      <trkpt lat="45.10086" lon="0.65149">
        <ele>177.98</ele>
        <time>2019-04-18T12:33:14Z</time>
      </trkpt>
      <trkpt lat="45.10078" lon="0.65144">
        <ele>179.9</ele>
        <time>2019-04-18T12:33:25Z</time>
      </trkpt>
      <trkpt lat="45.10071" lon="0.6514">
        <ele>181.83</ele>
        <time>2019-04-18T12:33:34Z</time>
      </trkpt>
      <trkpt lat="45.10061" lon="0.65135">
        <ele>184.23</ele>
        <time>2019-04-18T12:33:46Z</time>
      </trkpt>
      <trkpt lat="45.1006" lon="0.65134">
        <ele>184.23</ele>
        <time>2019-04-18T12:33:47Z</time>
      </trkpt>
      <trkpt lat="45.10045" lon="0.65128">
        <ele>186.15</ele>
        <time>2019-04-18T12:34:01Z</time>
      </trkpt>
      <trkpt lat="45.10035" lon="0.65123">
        <ele>187.59</ele>
        <time>2019-04-18T12:34:15Z</time>
      </trkpt>
      <trkpt lat="45.10035" lon="0.65112">
        <ele>187.59</ele>
        <time>2019-04-18T12:34:35Z</time>
      </trkpt>
      <trkpt lat="45.10035" lon="0.65106">
        <ele>188.08</ele>
        <time>2019-04-18T12:34:50Z</time>
      </trkpt>
      <trkpt lat="45.10035" lon="0.65105">
        <ele>189.04</ele>
        <time>2019-04-18T12:35:07Z</time>
      </trkpt>
      <trkpt lat="45.10039" lon="0.65111">
        <ele>188.08</ele>
        <time>2019-04-18T12:35:20Z</time>
      </trkpt>
      <trkpt lat="45.10031" lon="0.65119">
        <ele>188.08</ele>
        <time>2019-04-18T12:35:32Z</time>
      </trkpt>
      <trkpt lat="45.10015" lon="0.65124">
        <ele>188.08</ele>
        <time>2019-04-18T12:35:48Z</time>
      </trkpt>
      <trkpt lat="45.10013" lon="0.65123">
        <ele>188.08</ele>
        <time>2019-04-18T12:35:50Z</time>
      </trkpt>
      <trkpt lat="45.10006" lon="0.65123">
        <ele>191.44</ele>
        <time>2019-04-18T12:35:58Z</time>
      </trkpt>
      <trkpt lat="45.09991" lon="0.65123">
        <ele>193.36</ele>
        <time>2019-04-18T12:36:15Z</time>
      </trkpt>
      <trkpt lat="45.09976" lon="0.65121">
        <ele>195.28</ele>
        <time>2019-04-18T12:36:33Z</time>
      </trkpt>
      <trkpt lat="45.09965" lon="0.65117">
        <ele>196.73</ele>
        <time>2019-04-18T12:36:49Z</time>
      </trkpt>
      <trkpt lat="45.09955" lon="0.65114">
        <ele>197.69</ele>
        <time>2019-04-18T12:37:03Z</time>
      </trkpt>
      <trkpt lat="45.09936" lon="0.65114">
        <ele>198.65</ele>
        <time>2019-04-18T12:37:23Z</time>
      </trkpt>
      <trkpt lat="45.09925" lon="0.65113">
        <ele>200.57</ele>
        <time>2019-04-18T12:37:38Z</time>
      </trkpt>
      <trkpt lat="45.09917" lon="0.65113">
        <ele>201.53</ele>
        <time>2019-04-18T12:37:54Z</time>
      </trkpt>
      <trkpt lat="45.09906" lon="0.65115">
        <ele>202.98</ele>
        <time>2019-04-18T12:38:10Z</time>
      </trkpt>
      <trkpt lat="45.0989" lon="0.65115">
        <ele>204.42</ele>
        <time>2019-04-18T12:38:26Z</time>
      </trkpt>
      <trkpt lat="45.09874" lon="0.65117">
        <ele>205.86</ele>
        <time>2019-04-18T12:38:41Z</time>
      </trkpt>
      <trkpt lat="45.09861" lon="0.65116">
        <ele>206.82</ele>
        <time>2019-04-18T12:38:55Z</time>
      </trkpt>
      <trkpt lat="45.09857" lon="0.65117">
        <ele>207.3</ele>
        <time>2019-04-18T12:38:59Z</time>
      </trkpt>
      <trkpt lat="45.09842" lon="0.6512">
        <ele>208.74</ele>
        <time>2019-04-18T12:39:13Z</time>
      </trkpt>
      <trkpt lat="45.09828" lon="0.65126">
        <ele>210.19</ele>
        <time>2019-04-18T12:39:29Z</time>
      </trkpt>
      <trkpt lat="45.09828" lon="0.65126">
        <ele>210.67</ele>
        <time>2019-04-18T12:39:48Z</time>
      </trkpt>
      <trkpt lat="45.09828" lon="0.65126">
        <ele>209.22</ele>
        <time>2019-04-18T12:40:14Z</time>
      </trkpt>
      <trkpt lat="45.09816" lon="0.65132">
        <ele>209.7</ele>
        <time>2019-04-18T12:40:30Z</time>
      </trkpt>
      <trkpt lat="45.09804" lon="0.65137">
        <ele>211.15</ele>
        <time>2019-04-18T12:40:45Z</time>
      </trkpt>
      <trkpt lat="45.09796" lon="0.65141">
        <ele>211.63</ele>
        <time>2019-04-18T12:40:56Z</time>
      </trkpt>
      <trkpt lat="45.09787" lon="0.65145">
        <ele>212.11</ele>
        <time>2019-04-18T12:41:08Z</time>
      </trkpt>
      <trkpt lat="45.09777" lon="0.6515">
        <ele>212.11</ele>
        <time>2019-04-18T12:41:23Z</time>
      </trkpt>
      <trkpt lat="45.09765" lon="0.65153">
        <ele>213.07</ele>
        <time>2019-04-18T12:41:41Z</time>
      </trkpt>
      <trkpt lat="45.09767" lon="0.65165">
        <ele>213.55</ele>
        <time>2019-04-18T12:41:58Z</time>
      </trkpt>
      <trkpt lat="45.09767" lon="0.65179">
        <ele>213.55</ele>
        <time>2019-04-18T12:42:14Z</time>
      </trkpt>
      <trkpt lat="45.09766" lon="0.65166">
        <ele>214.03</ele>
        <time>2019-04-18T12:42:34Z</time>
      </trkpt>
      <trkpt lat="45.09764" lon="0.65162">
        <ele>214.03</ele>
        <time>2019-04-18T12:42:52Z</time>
      </trkpt>
      <trkpt lat="45.09753" lon="0.65157">
        <ele>214.03</ele>
        <time>2019-04-18T12:43:11Z</time>
      </trkpt>
      <trkpt lat="45.09744" lon="0.65156">
        <ele>214.03</ele>
        <time>2019-04-18T12:43:21Z</time>
      </trkpt>
      <trkpt lat="45.09741" lon="0.65155">
        <ele>214.03</ele>
        <time>2019-04-18T12:43:24Z</time>
      </trkpt>
      <trkpt lat="45.09739" lon="0.65155">
        <ele>214.03</ele>
        <time>2019-04-18T12:43:26Z</time>
      </trkpt>
      <trkpt lat="45.09724" lon="0.65155">
        <ele>215.47</ele>
        <time>2019-04-18T12:43:43Z</time>
      </trkpt>
      <trkpt lat="45.09708" lon="0.65155">
        <ele>215.95</ele>
        <time>2019-04-18T12:43:59Z</time>
      </trkpt>
      <trkpt lat="45.09684" lon="0.65156">
        <ele>216.43</ele>
        <time>2019-04-18T12:44:18Z</time>
      </trkpt>
      <trkpt lat="45.09671" lon="0.65157">
        <ele>216.43</ele>
        <time>2019-04-18T12:44:31Z</time>
      </trkpt>
      <trkpt lat="45.09659" lon="0.65157">
        <ele>216.91</ele>
        <time>2019-04-18T12:44:46Z</time>
      </trkpt>
      <trkpt lat="45.09658" lon="0.65157">
        <ele>216.91</ele>
        <time>2019-04-18T12:44:47Z</time>
      </trkpt>
      <trkpt lat="45.09643" lon="0.65158">
        <ele>217.4</ele>
        <time>2019-04-18T12:45:02Z</time>
      </trkpt>
      <trkpt lat="45.09641" lon="0.65158">
        <ele>217.4</ele>
        <time>2019-04-18T12:45:03Z</time>
      </trkpt>
      <trkpt lat="45.09635" lon="0.65158">
        <ele>217.4</ele>
        <time>2019-04-18T12:45:08Z</time>
      </trkpt>
      <trkpt lat="45.09634" lon="0.65158">
        <ele>217.4</ele>
        <time>2019-04-18T12:45:09Z</time>
      </trkpt>
      <trkpt lat="45.09632" lon="0.65158">
        <ele>217.4</ele>
        <time>2019-04-18T12:45:10Z</time>
      </trkpt>
      <trkpt lat="45.09611" lon="0.65159">
        <ele>217.4</ele>
        <time>2019-04-18T12:45:29Z</time>
      </trkpt>
      <trkpt lat="45.09589" lon="0.65158">
        <ele>217.4</ele>
        <time>2019-04-18T12:45:48Z</time>
      </trkpt>
      <trkpt lat="45.09585" lon="0.65158">
        <ele>217.4</ele>
        <time>2019-04-18T12:45:52Z</time>
      </trkpt>
      <trkpt lat="45.09571" lon="0.65155">
        <ele>216.91</ele>
        <time>2019-04-18T12:46:07Z</time>
      </trkpt>
      <trkpt lat="45.09555" lon="0.65155">
        <ele>217.4</ele>
        <time>2019-04-18T12:46:23Z</time>
      </trkpt>
      <trkpt lat="45.09535" lon="0.65153">
        <ele>217.4</ele>
        <time>2019-04-18T12:46:39Z</time>
      </trkpt>
      <trkpt lat="45.09533" lon="0.65153">
        <ele>217.4</ele>
        <time>2019-04-18T12:46:40Z</time>
      </trkpt>
      <trkpt lat="45.09518" lon="0.65152">
        <ele>217.4</ele>
        <time>2019-04-18T12:46:54Z</time>
      </trkpt>
      <trkpt lat="45.09502" lon="0.65154">
        <ele>217.88</ele>
        <time>2019-04-18T12:47:09Z</time>
      </trkpt>
      <trkpt lat="45.09486" lon="0.65164">
        <ele>219.8</ele>
        <time>2019-04-18T12:47:24Z</time>
      </trkpt>
      <trkpt lat="45.09471" lon="0.65176">
        <ele>220.76</ele>
        <time>2019-04-18T12:47:40Z</time>
      </trkpt>
      <trkpt lat="45.09468" lon="0.6518">
        <ele>220.76</ele>
        <time>2019-04-18T12:47:44Z</time>
      </trkpt>
      <trkpt lat="45.09457" lon="0.65192">
        <ele>221.24</ele>
        <time>2019-04-18T12:47:57Z</time>
      </trkpt>
      <trkpt lat="45.09444" lon="0.65209">
        <ele>221.72</ele>
        <time>2019-04-18T12:48:14Z</time>
      </trkpt>
      <trkpt lat="45.09436" lon="0.65219">
        <ele>223.64</ele>
        <time>2019-04-18T12:48:32Z</time>
      </trkpt>
      <trkpt lat="45.09436" lon="0.65221">
        <ele>223.16</ele>
        <time>2019-04-18T12:48:47Z</time>
      </trkpt>
      <trkpt lat="45.09425" lon="0.65234">
        <ele>223.16</ele>
        <time>2019-04-18T12:49:04Z</time>
      </trkpt>
      <trkpt lat="45.09415" lon="0.65241">
        <ele>222.68</ele>
        <time>2019-04-18T12:49:15Z</time>
      </trkpt>
      <trkpt lat="45.094" lon="0.65251">
        <ele>222.68</ele>
        <time>2019-04-18T12:49:31Z</time>
      </trkpt>
      <trkpt lat="45.09399" lon="0.65253">
        <ele>222.68</ele>
        <time>2019-04-18T12:49:32Z</time>
      </trkpt>
      <trkpt lat="45.09383" lon="0.65265">
        <ele>222.2</ele>
        <time>2019-04-18T12:49:49Z</time>
      </trkpt>
      <trkpt lat="45.09362" lon="0.65276">
        <ele>221.72</ele>
        <time>2019-04-18T12:50:09Z</time>
      </trkpt>
      <trkpt lat="45.09354" lon="0.65281">
        <ele>221.24</ele>
        <time>2019-04-18T12:50:24Z</time>
      </trkpt>
      <trkpt lat="45.09341" lon="0.65293">
        <ele>222.2</ele>
        <time>2019-04-18T12:50:38Z</time>
      </trkpt>
      <trkpt lat="45.0934" lon="0.65294">
        <ele>222.2</ele>
        <time>2019-04-18T12:50:39Z</time>
      </trkpt>
      <trkpt lat="45.09335" lon="0.65301">
        <ele>222.2</ele>
        <time>2019-04-18T12:50:45Z</time>
      </trkpt>
      <trkpt lat="45.0933" lon="0.65312">
        <ele>222.2</ele>
        <time>2019-04-18T12:50:53Z</time>
      </trkpt>
      <trkpt lat="45.09325" lon="0.6534">
        <ele>223.64</ele>
        <time>2019-04-18T12:51:13Z</time>
      </trkpt>
      <trkpt lat="45.09319" lon="0.65357">
        <ele>224.12</ele>
        <time>2019-04-18T12:51:28Z</time>
      </trkpt>
      <trkpt lat="45.09314" lon="0.65375">
        <ele>225.09</ele>
        <time>2019-04-18T12:51:41Z</time>
      </trkpt>
      <trkpt lat="45.09307" lon="0.6539">
        <ele>226.53</ele>
        <time>2019-04-18T12:51:56Z</time>
      </trkpt>
      <trkpt lat="45.09306" lon="0.65398">
        <ele>227.01</ele>
        <time>2019-04-18T12:52:11Z</time>
      </trkpt>
      <trkpt lat="45.09307" lon="0.65399">
        <ele>227.01</ele>
        <time>2019-04-18T12:52:27Z</time>
      </trkpt>
      <trkpt lat="45.09312" lon="0.65413">
        <ele>226.53</ele>
        <time>2019-04-18T12:52:42Z</time>
      </trkpt>
      <trkpt lat="45.09318" lon="0.65429">
        <ele>226.53</ele>
        <time>2019-04-18T12:52:56Z</time>
      </trkpt>
      <trkpt lat="45.09325" lon="0.65445">
        <ele>226.53</ele>
        <time>2019-04-18T12:53:11Z</time>
      </trkpt>
      <trkpt lat="45.09332" lon="0.65461">
        <ele>226.53</ele>
        <time>2019-04-18T12:53:25Z</time>
      </trkpt>
      <trkpt lat="45.09338" lon="0.65475">
        <ele>227.01</ele>
        <time>2019-04-18T12:53:44Z</time>
      </trkpt>
      <trkpt lat="45.09343" lon="0.65485">
        <ele>227.01</ele>
        <time>2019-04-18T12:54:10Z</time>
      </trkpt>
      <trkpt lat="45.09349" lon="0.65501">
        <ele>226.53</ele>
        <time>2019-04-18T12:54:26Z</time>
      </trkpt>
      <trkpt lat="45.09361" lon="0.65516">
        <ele>226.05</ele>
        <time>2019-04-18T12:54:40Z</time>
      </trkpt>
      <trkpt lat="45.09371" lon="0.65531">
        <ele>226.05</ele>
        <time>2019-04-18T12:54:56Z</time>
      </trkpt>
      <trkpt lat="45.0938" lon="0.65552">
        <ele>226.05</ele>
        <time>2019-04-18T12:55:15Z</time>
      </trkpt>
      <trkpt lat="45.09391" lon="0.65571">
        <ele>225.57</ele>
        <time>2019-04-18T12:55:31Z</time>
      </trkpt>
      <trkpt lat="45.09401" lon="0.65598">
        <ele>225.57</ele>
        <time>2019-04-18T12:55:49Z</time>
      </trkpt>
      <trkpt lat="45.09408" lon="0.65621">
        <ele>225.57</ele>
        <time>2019-04-18T12:56:06Z</time>
      </trkpt>
      <trkpt lat="45.09413" lon="0.65647">
        <ele>224.61</ele>
        <time>2019-04-18T12:56:23Z</time>
      </trkpt>
      <trkpt lat="45.09422" lon="0.65671">
        <ele>224.61</ele>
        <time>2019-04-18T12:56:40Z</time>
      </trkpt>
      <trkpt lat="45.09429" lon="0.65692">
        <ele>224.12</ele>
        <time>2019-04-18T12:56:56Z</time>
      </trkpt>
      <trkpt lat="45.09439" lon="0.65717">
        <ele>221.72</ele>
        <time>2019-04-18T12:57:16Z</time>
      </trkpt>
      <trkpt lat="45.09446" lon="0.65749">
        <ele>220.28</ele>
        <time>2019-04-18T12:57:36Z</time>
      </trkpt>
      <trkpt lat="45.09447" lon="0.65754">
        <ele>220.28</ele>
        <time>2019-04-18T12:57:39Z</time>
      </trkpt>
      <trkpt lat="45.09452" lon="0.65774">
        <ele>219.8</ele>
        <time>2019-04-18T12:57:52Z</time>
      </trkpt>
      <trkpt lat="45.09458" lon="0.65796">
        <ele>219.8</ele>
        <time>2019-04-18T12:58:07Z</time>
      </trkpt>
      <trkpt lat="45.09466" lon="0.65817">
        <ele>219.8</ele>
        <time>2019-04-18T12:58:22Z</time>
      </trkpt>
      <trkpt lat="45.09471" lon="0.65838">
        <ele>219.8</ele>
        <time>2019-04-18T12:58:37Z</time>
      </trkpt>
      <trkpt lat="45.09472" lon="0.6584">
        <ele>219.8</ele>
        <time>2019-04-18T12:58:39Z</time>
      </trkpt>
      <trkpt lat="45.09478" lon="0.65859">
        <ele>219.32</ele>
        <time>2019-04-18T12:58:51Z</time>
      </trkpt>
      <trkpt lat="45.09483" lon="0.6588">
        <ele>218.84</ele>
        <time>2019-04-18T12:59:07Z</time>
      </trkpt>
      <trkpt lat="45.09491" lon="0.65902">
        <ele>218.36</ele>
        <time>2019-04-18T12:59:24Z</time>
      </trkpt>
      <trkpt lat="45.09498" lon="0.65927">
        <ele>216.91</ele>
        <time>2019-04-18T12:59:42Z</time>
      </trkpt>
      <trkpt lat="45.09499" lon="0.65947">
        <ele>216.91</ele>
        <time>2019-04-18T12:59:55Z</time>
      </trkpt>
      <trkpt lat="45.09498" lon="0.65973">
        <ele>217.4</ele>
        <time>2019-04-18T13:00:15Z</time>
      </trkpt>
      <trkpt lat="45.09494" lon="0.66006">
        <ele>219.32</ele>
        <time>2019-04-18T13:00:37Z</time>
      </trkpt>
      <trkpt lat="45.09489" lon="0.66027">
        <ele>220.76</ele>
        <time>2019-04-18T13:00:55Z</time>
      </trkpt>
      <trkpt lat="45.09481" lon="0.66044">
        <ele>222.2</ele>
        <time>2019-04-18T13:01:15Z</time>
      </trkpt>
      <trkpt lat="45.09476" lon="0.66055">
        <ele>222.68</ele>
        <time>2019-04-18T13:01:29Z</time>
      </trkpt>
      <trkpt lat="45.09474" lon="0.66057">
        <ele>222.2</ele>
        <time>2019-04-18T13:01:51Z</time>
      </trkpt>
      <trkpt lat="45.09473" lon="0.66055">
        <ele>222.2</ele>
        <time>2019-04-18T13:02:15Z</time>
      </trkpt>
      <trkpt lat="45.09469" lon="0.6606">
        <ele>222.68</ele>
        <time>2019-04-18T13:02:41Z</time>
      </trkpt>
      <trkpt lat="45.0947" lon="0.66062">
        <ele>223.16</ele>
        <time>2019-04-18T13:02:58Z</time>
      </trkpt>
      <trkpt lat="45.09471" lon="0.66061">
        <ele>223.16</ele>
        <time>2019-04-18T13:03:19Z</time>
      </trkpt>
      <trkpt lat="45.09469" lon="0.66063">
        <ele>223.16</ele>
        <time>2019-04-18T13:03:33Z</time>
      </trkpt>
      <trkpt lat="45.0946" lon="0.6606">
        <ele>223.64</ele>
        <time>2019-04-18T13:03:42Z</time>
      </trkpt>
      <trkpt lat="45.09457" lon="0.6606">
        <ele>223.64</ele>
        <time>2019-04-18T13:03:45Z</time>
      </trkpt>
      <trkpt lat="45.09455" lon="0.6606">
        <ele>223.64</ele>
        <time>2019-04-18T13:03:47Z</time>
      </trkpt>
      <trkpt lat="45.09454" lon="0.66059">
        <ele>223.64</ele>
        <time>2019-04-18T13:03:48Z</time>
      </trkpt>
      <trkpt lat="45.09431" lon="0.66048">
        <ele>223.64</ele>
        <time>2019-04-18T13:04:10Z</time>
      </trkpt>
      <trkpt lat="45.09413" lon="0.66042">
        <ele>223.64</ele>
        <time>2019-04-18T13:04:27Z</time>
      </trkpt>
      <trkpt lat="45.09389" lon="0.66043">
        <ele>223.64</ele>
        <time>2019-04-18T13:04:48Z</time>
      </trkpt>
      <trkpt lat="45.09368" lon="0.66044">
        <ele>223.16</ele>
        <time>2019-04-18T13:05:07Z</time>
      </trkpt>
      <trkpt lat="45.09345" lon="0.6605">
        <ele>222.68</ele>
        <time>2019-04-18T13:05:28Z</time>
      </trkpt>
      <trkpt lat="45.09326" lon="0.66057">
        <ele>221.72</ele>
        <time>2019-04-18T13:05:46Z</time>
      </trkpt>
      <trkpt lat="45.09311" lon="0.66062">
        <ele>220.76</ele>
        <time>2019-04-18T13:06:01Z</time>
      </trkpt>
      <trkpt lat="45.09296" lon="0.66069">
        <ele>219.32</ele>
        <time>2019-04-18T13:06:16Z</time>
      </trkpt>
      <trkpt lat="45.09279" lon="0.66078">
        <ele>218.36</ele>
        <time>2019-04-18T13:06:35Z</time>
      </trkpt>
      <trkpt lat="45.09265" lon="0.66091">
        <ele>216.43</ele>
        <time>2019-04-18T13:06:53Z</time>
      </trkpt>
      <trkpt lat="45.09255" lon="0.661">
        <ele>214.03</ele>
        <time>2019-04-18T13:07:07Z</time>
      </trkpt>
      <trkpt lat="45.0924" lon="0.66109">
        <ele>211.63</ele>
        <time>2019-04-18T13:07:25Z</time>
      </trkpt>
      <trkpt lat="45.09227" lon="0.66113">
        <ele>209.22</ele>
        <time>2019-04-18T13:07:38Z</time>
      </trkpt>
      <trkpt lat="45.09226" lon="0.66113">
        <ele>209.22</ele>
        <time>2019-04-18T13:07:39Z</time>
      </trkpt>
      <trkpt lat="45.09224" lon="0.66114">
        <ele>209.22</ele>
        <time>2019-04-18T13:07:40Z</time>
      </trkpt>
      <trkpt lat="45.0921" lon="0.66119">
        <ele>206.34</ele>
        <time>2019-04-18T13:07:56Z</time>
      </trkpt>
      <trkpt lat="45.09195" lon="0.66128">
        <ele>203.46</ele>
        <time>2019-04-18T13:08:12Z</time>
      </trkpt>
      <trkpt lat="45.09178" lon="0.66137">
        <ele>200.57</ele>
        <time>2019-04-18T13:08:29Z</time>
      </trkpt>
      <trkpt lat="45.09175" lon="0.66138">
        <ele>200.09</ele>
        <time>2019-04-18T13:08:32Z</time>
      </trkpt>
      <trkpt lat="45.09161" lon="0.66141">
        <ele>198.17</ele>
        <time>2019-04-18T13:08:44Z</time>
      </trkpt>
      <trkpt lat="45.09149" lon="0.66144">
        <ele>196.73</ele>
        <time>2019-04-18T13:08:58Z</time>
      </trkpt>
      <trkpt lat="45.09134" lon="0.66154">
        <ele>194.8</ele>
        <time>2019-04-18T13:09:14Z</time>
      </trkpt>
      <trkpt lat="45.09117" lon="0.66165">
        <ele>192.4</ele>
        <time>2019-04-18T13:09:32Z</time>
      </trkpt>
      <trkpt lat="45.09105" lon="0.66175">
        <ele>190.48</ele>
        <time>2019-04-18T13:09:46Z</time>
      </trkpt>
      <trkpt lat="45.09088" lon="0.66188">
        <ele>188.56</ele>
        <time>2019-04-18T13:10:04Z</time>
      </trkpt>
      <trkpt lat="45.09081" lon="0.66194">
        <ele>187.59</ele>
        <time>2019-04-18T13:10:10Z</time>
      </trkpt>
      <trkpt lat="45.09065" lon="0.6621">
        <ele>185.67</ele>
        <time>2019-04-18T13:10:27Z</time>
      </trkpt>
      <trkpt lat="45.0905" lon="0.66226">
        <ele>183.27</ele>
        <time>2019-04-18T13:10:46Z</time>
      </trkpt>
      <trkpt lat="45.09037" lon="0.66241">
        <ele>181.35</ele>
        <time>2019-04-18T13:11:03Z</time>
      </trkpt>
      <trkpt lat="45.09026" lon="0.66255">
        <ele>179.42</ele>
        <time>2019-04-18T13:11:19Z</time>
      </trkpt>
      <trkpt lat="45.09015" lon="0.66264">
        <ele>176.06</ele>
        <time>2019-04-18T13:11:34Z</time>
      </trkpt>
      <trkpt lat="45.09003" lon="0.66272">
        <ele>173.17</ele>
        <time>2019-04-18T13:11:50Z</time>
      </trkpt>
      <trkpt lat="45.08999" lon="0.66276">
        <ele>172.69</ele>
        <time>2019-04-18T13:11:54Z</time>
      </trkpt>
      <trkpt lat="45.08985" lon="0.66283">
        <ele>169.81</ele>
        <time>2019-04-18T13:12:10Z</time>
      </trkpt>
      <trkpt lat="45.08977" lon="0.66287">
        <ele>167.41</ele>
        <time>2019-04-18T13:12:20Z</time>
      </trkpt>
      <trkpt lat="45.08969" lon="0.66293">
        <ele>165.48</ele>
        <time>2019-04-18T13:12:36Z</time>
      </trkpt>
      <trkpt lat="45.08967" lon="0.66294">
        <ele>165.48</ele>
        <time>2019-04-18T13:12:59Z</time>
      </trkpt>
      <trkpt lat="45.08967" lon="0.66296">
        <ele>165</ele>
        <time>2019-04-18T13:13:21Z</time>
      </trkpt>
      <trkpt lat="45.08966" lon="0.66296">
        <ele>164.52</ele>
        <time>2019-04-18T13:13:38Z</time>
      </trkpt>
      <trkpt lat="45.08966" lon="0.66295">
        <ele>164.04</ele>
        <time>2019-04-18T13:14:05Z</time>
      </trkpt>
      <trkpt lat="45.08966" lon="0.66296">
        <ele>164.04</ele>
        <time>2019-04-18T13:14:31Z</time>
      </trkpt>
      <trkpt lat="45.08966" lon="0.66297">
        <ele>164.04</ele>
        <time>2019-04-18T13:14:54Z</time>
      </trkpt>
      <trkpt lat="45.08965" lon="0.66297">
        <ele>164.04</ele>
        <time>2019-04-18T13:15:23Z</time>
      </trkpt>
      <trkpt lat="45.08965" lon="0.66297">
        <ele>164.04</ele>
        <time>2019-04-18T13:15:49Z</time>
      </trkpt>
      <trkpt lat="45.08956" lon="0.66297">
        <ele>164.04</ele>
        <time>2019-04-18T13:16:11Z</time>
      </trkpt>
      <trkpt lat="45.08953" lon="0.66297">
        <ele>164.04</ele>
        <time>2019-04-18T13:16:15Z</time>
      </trkpt>
      <trkpt lat="45.0895" lon="0.66297">
        <ele>164.04</ele>
        <time>2019-04-18T13:16:17Z</time>
      </trkpt>
      <trkpt lat="45.08937" lon="0.66293">
        <ele>161.16</ele>
        <time>2019-04-18T13:16:31Z</time>
      </trkpt>
      <trkpt lat="45.08923" lon="0.66289">
        <ele>159.72</ele>
        <time>2019-04-18T13:16:46Z</time>
      </trkpt>
      <trkpt lat="45.08911" lon="0.66285">
        <ele>157.31</ele>
        <time>2019-04-18T13:17:03Z</time>
      </trkpt>
      <trkpt lat="45.08889" lon="0.66272">
        <ele>154.91</ele>
        <time>2019-04-18T13:17:22Z</time>
      </trkpt>
      <trkpt lat="45.08884" lon="0.66268">
        <ele>154.43</ele>
        <time>2019-04-18T13:17:27Z</time>
      </trkpt>
      <trkpt lat="45.08873" lon="0.66261">
        <ele>153.47</ele>
        <time>2019-04-18T13:17:40Z</time>
      </trkpt>
      <trkpt lat="45.08871" lon="0.66259">
        <ele>152.99</ele>
        <time>2019-04-18T13:17:42Z</time>
      </trkpt>
      <trkpt lat="45.08864" lon="0.66257">
        <ele>152.99</ele>
        <time>2019-04-18T13:17:47Z</time>
      </trkpt>
      <trkpt lat="45.08846" lon="0.66254">
        <ele>152.03</ele>
        <time>2019-04-18T13:18:02Z</time>
      </trkpt>
      <trkpt lat="45.08837" lon="0.66253">
        <ele>151.54</ele>
        <time>2019-04-18T13:18:09Z</time>
      </trkpt>
      <trkpt lat="45.0882" lon="0.6625">
        <ele>151.06</ele>
        <time>2019-04-18T13:18:24Z</time>
      </trkpt>
      <trkpt lat="45.08814" lon="0.6625">
        <ele>151.06</ele>
        <time>2019-04-18T13:18:28Z</time>
      </trkpt>
      <trkpt lat="45.08798" lon="0.66248">
        <ele>150.58</ele>
        <time>2019-04-18T13:18:45Z</time>
      </trkpt>
      <trkpt lat="45.08795" lon="0.66245">
        <ele>150.58</ele>
        <time>2019-04-18T13:19:19Z</time>
      </trkpt>
      <trkpt lat="45.08788" lon="0.66246">
        <ele>150.58</ele>
        <time>2019-04-18T13:19:36Z</time>
      </trkpt>
      <trkpt lat="45.08785" lon="0.66246">
        <ele>151.06</ele>
        <time>2019-04-18T13:19:38Z</time>
      </trkpt>
      <trkpt lat="45.08782" lon="0.66247">
        <ele>151.06</ele>
        <time>2019-04-18T13:19:41Z</time>
      </trkpt>
      <trkpt lat="45.08768" lon="0.66244">
        <ele>151.54</ele>
        <time>2019-04-18T13:19:54Z</time>
      </trkpt>
      <trkpt lat="45.08751" lon="0.66244">
        <ele>152.51</ele>
        <time>2019-04-18T13:20:10Z</time>
      </trkpt>
      <trkpt lat="45.08737" lon="0.66242">
        <ele>152.99</ele>
        <time>2019-04-18T13:20:22Z</time>
      </trkpt>
      <trkpt lat="45.0873" lon="0.66237">
        <ele>153.95</ele>
        <time>2019-04-18T13:20:31Z</time>
      </trkpt>
      <trkpt lat="45.08721" lon="0.66214">
        <ele>155.87</ele>
        <time>2019-04-18T13:20:50Z</time>
      </trkpt>
      <trkpt lat="45.08715" lon="0.66194">
        <ele>157.31</ele>
        <time>2019-04-18T13:21:05Z</time>
      </trkpt>
      <trkpt lat="45.0871" lon="0.6618">
        <ele>158.27</ele>
        <time>2019-04-18T13:21:15Z</time>
      </trkpt>
      <trkpt lat="45.08706" lon="0.66164">
        <ele>159.24</ele>
        <time>2019-04-18T13:21:26Z</time>
      </trkpt>
      <trkpt lat="45.08706" lon="0.66159">
        <ele>159.24</ele>
        <time>2019-04-18T13:21:29Z</time>
      </trkpt>
      <trkpt lat="45.08701" lon="0.66142">
        <ele>160.2</ele>
        <time>2019-04-18T13:21:42Z</time>
      </trkpt>
      <trkpt lat="45.08701" lon="0.6614">
        <ele>160.2</ele>
        <time>2019-04-18T13:21:44Z</time>
      </trkpt>
      <trkpt lat="45.08694" lon="0.66119">
        <ele>161.64</ele>
        <time>2019-04-18T13:21:59Z</time>
      </trkpt>
      <trkpt lat="45.08694" lon="0.66116">
        <ele>161.64</ele>
        <time>2019-04-18T13:22:01Z</time>
      </trkpt>
      <trkpt lat="45.08691" lon="0.66101">
        <ele>162.6</ele>
        <time>2019-04-18T13:22:11Z</time>
      </trkpt>
      <trkpt lat="45.0869" lon="0.66091">
        <ele>163.08</ele>
        <time>2019-04-18T13:22:19Z</time>
      </trkpt>
      <trkpt lat="45.08689" lon="0.66069">
        <ele>164.52</ele>
        <time>2019-04-18T13:22:34Z</time>
      </trkpt>
      <trkpt lat="45.08686" lon="0.66051">
        <ele>165.48</ele>
        <time>2019-04-18T13:22:46Z</time>
      </trkpt>
      <trkpt lat="45.08685" lon="0.66036">
        <ele>166.93</ele>
        <time>2019-04-18T13:23:00Z</time>
      </trkpt>
      <trkpt lat="45.0868" lon="0.66034">
        <ele>166.45</ele>
        <time>2019-04-18T13:23:25Z</time>
      </trkpt>
      <trkpt lat="45.08679" lon="0.66017">
        <ele>167.41</ele>
        <time>2019-04-18T13:23:42Z</time>
      </trkpt>
      <trkpt lat="45.0868" lon="0.65989">
        <ele>168.85</ele>
        <time>2019-04-18T13:24:02Z</time>
      </trkpt>
      <trkpt lat="45.08678" lon="0.65974">
        <ele>170.29</ele>
        <time>2019-04-18T13:24:14Z</time>
      </trkpt>
      <trkpt lat="45.08675" lon="0.65959">
        <ele>171.25</ele>
        <time>2019-04-18T13:24:27Z</time>
      </trkpt>
      <trkpt lat="45.08673" lon="0.6594">
        <ele>172.69</ele>
        <time>2019-04-18T13:24:42Z</time>
      </trkpt>
      <trkpt lat="45.08665" lon="0.6592">
        <ele>174.62</ele>
        <time>2019-04-18T13:24:59Z</time>
      </trkpt>
      <trkpt lat="45.08658" lon="0.65904">
        <ele>176.06</ele>
        <time>2019-04-18T13:25:15Z</time>
      </trkpt>
      <trkpt lat="45.08647" lon="0.65888">
        <ele>177.98</ele>
        <time>2019-04-18T13:25:34Z</time>
      </trkpt>
      <trkpt lat="45.08636" lon="0.65875">
        <ele>179.9</ele>
        <time>2019-04-18T13:25:52Z</time>
      </trkpt>
      <trkpt lat="45.08625" lon="0.65858">
        <ele>181.35</ele>
        <time>2019-04-18T13:26:10Z</time>
      </trkpt>
      <trkpt lat="45.08619" lon="0.65846">
        <ele>181.83</ele>
        <time>2019-04-18T13:26:26Z</time>
      </trkpt>
      <trkpt lat="45.08616" lon="0.65847">
        <ele>182.31</ele>
        <time>2019-04-18T13:26:54Z</time>
      </trkpt>
      <trkpt lat="45.08615" lon="0.65845">
        <ele>182.31</ele>
        <time>2019-04-18T13:27:22Z</time>
      </trkpt>
      <trkpt lat="45.08614" lon="0.65843">
        <ele>182.31</ele>
        <time>2019-04-18T13:27:44Z</time>
      </trkpt>
      <trkpt lat="45.08613" lon="0.6584">
        <ele>182.31</ele>
        <time>2019-04-18T13:28:03Z</time>
      </trkpt>
      <trkpt lat="45.0861" lon="0.65835">
        <ele>182.31</ele>
        <time>2019-04-18T13:28:18Z</time>
      </trkpt>
      <trkpt lat="45.08609" lon="0.6583">
        <ele>182.31</ele>
        <time>2019-04-18T13:28:53Z</time>
      </trkpt>
      <trkpt lat="45.08602" lon="0.65818">
        <ele>182.79</ele>
        <time>2019-04-18T13:29:08Z</time>
      </trkpt>
      <trkpt lat="45.08595" lon="0.65798">
        <ele>183.27</ele>
        <time>2019-04-18T13:29:26Z</time>
      </trkpt>
      <trkpt lat="45.08588" lon="0.65774">
        <ele>185.19</ele>
        <time>2019-04-18T13:29:44Z</time>
      </trkpt>
      <trkpt lat="45.0858" lon="0.65754">
        <ele>186.63</ele>
        <time>2019-04-18T13:30:01Z</time>
      </trkpt>
      <trkpt lat="45.08572" lon="0.65731">
        <ele>187.59</ele>
        <time>2019-04-18T13:30:19Z</time>
      </trkpt>
      <trkpt lat="45.08561" lon="0.65717">
        <ele>189.52</ele>
        <time>2019-04-18T13:30:36Z</time>
      </trkpt>
      <trkpt lat="45.08553" lon="0.65714">
        <ele>190</ele>
        <time>2019-04-18T13:30:47Z</time>
      </trkpt>
      <trkpt lat="45.08552" lon="0.65714">
        <ele>190</ele>
        <time>2019-04-18T13:30:48Z</time>
      </trkpt>
      <trkpt lat="45.08542" lon="0.65714">
        <ele>190.96</ele>
        <time>2019-04-18T13:30:59Z</time>
      </trkpt>
      <trkpt lat="45.08537" lon="0.65714">
        <ele>191.44</ele>
        <time>2019-04-18T13:31:04Z</time>
      </trkpt>
      <trkpt lat="45.08523" lon="0.6571">
        <ele>191.92</ele>
        <time>2019-04-18T13:31:18Z</time>
      </trkpt>
      <trkpt lat="45.08515" lon="0.65717">
        <ele>192.4</ele>
        <time>2019-04-18T13:31:34Z</time>
      </trkpt>
      <trkpt lat="45.08513" lon="0.65736">
        <ele>194.32</ele>
        <time>2019-04-18T13:31:54Z</time>
      </trkpt>
      <trkpt lat="45.0851" lon="0.65758">
        <ele>196.73</ele>
        <time>2019-04-18T13:32:10Z</time>
      </trkpt>
      <trkpt lat="45.0851" lon="0.65762">
        <ele>197.21</ele>
        <time>2019-04-18T13:32:12Z</time>
      </trkpt>
      <trkpt lat="45.0851" lon="0.65769">
        <ele>197.21</ele>
        <time>2019-04-18T13:32:17Z</time>
      </trkpt>
      <trkpt lat="45.08512" lon="0.65776">
        <ele>198.17</ele>
        <time>2019-04-18T13:32:23Z</time>
      </trkpt>
      <trkpt lat="45.08511" lon="0.65778">
        <ele>198.17</ele>
        <time>2019-04-18T13:32:24Z</time>
      </trkpt>
      <trkpt lat="45.08511" lon="0.65787">
        <ele>199.13</ele>
        <time>2019-04-18T13:32:34Z</time>
      </trkpt>
      <trkpt lat="45.08511" lon="0.65791">
        <ele>199.13</ele>
        <time>2019-04-18T13:32:37Z</time>
      </trkpt>
      <trkpt lat="45.08506" lon="0.6581">
        <ele>200.57</ele>
        <time>2019-04-18T13:32:53Z</time>
      </trkpt>
      <trkpt lat="45.085" lon="0.65825">
        <ele>202.01</ele>
        <time>2019-04-18T13:33:08Z</time>
      </trkpt>
      <trkpt lat="45.08499" lon="0.65832">
        <ele>202.49</ele>
        <time>2019-04-18T13:33:15Z</time>
      </trkpt>
      <trkpt lat="45.08496" lon="0.65841">
        <ele>202.98</ele>
        <time>2019-04-18T13:33:23Z</time>
      </trkpt>
      <trkpt lat="45.08495" lon="0.65842">
        <ele>202.98</ele>
        <time>2019-04-18T13:33:24Z</time>
      </trkpt>
      <trkpt lat="45.08494" lon="0.65846">
        <ele>203.46</ele>
        <time>2019-04-18T13:33:27Z</time>
      </trkpt>
      <trkpt lat="45.08488" lon="0.65853">
        <ele>204.42</ele>
        <time>2019-04-18T13:33:39Z</time>
      </trkpt>
      <trkpt lat="45.08486" lon="0.65852">
        <ele>204.9</ele>
        <time>2019-04-18T13:33:50Z</time>
      </trkpt>
      <trkpt lat="45.08482" lon="0.65861">
        <ele>205.38</ele>
        <time>2019-04-18T13:34:04Z</time>
      </trkpt>
      <trkpt lat="45.08481" lon="0.65863">
        <ele>205.38</ele>
        <time>2019-04-18T13:34:05Z</time>
      </trkpt>
      <trkpt lat="45.08469" lon="0.65877">
        <ele>207.78</ele>
        <time>2019-04-18T13:34:24Z</time>
      </trkpt>
      <trkpt lat="45.08459" lon="0.65883">
        <ele>209.22</ele>
        <time>2019-04-18T13:34:38Z</time>
      </trkpt>
      <trkpt lat="45.08448" lon="0.65893">
        <ele>211.15</ele>
        <time>2019-04-18T13:34:52Z</time>
      </trkpt>
      <trkpt lat="45.08437" lon="0.65904">
        <ele>213.07</ele>
        <time>2019-04-18T13:35:06Z</time>
      </trkpt>
      <trkpt lat="45.08426" lon="0.65914">
        <ele>214.51</ele>
        <time>2019-04-18T13:35:19Z</time>
      </trkpt>
      <trkpt lat="45.08411" lon="0.65927">
        <ele>216.43</ele>
        <time>2019-04-18T13:35:36Z</time>
      </trkpt>
      <trkpt lat="45.08402" lon="0.65934">
        <ele>218.36</ele>
        <time>2019-04-18T13:35:50Z</time>
      </trkpt>
      <trkpt lat="45.08391" lon="0.65946">
        <ele>218.84</ele>
        <time>2019-04-18T13:36:04Z</time>
      </trkpt>
      <trkpt lat="45.0839" lon="0.65948">
        <ele>218.84</ele>
        <time>2019-04-18T13:36:05Z</time>
      </trkpt>
      <trkpt lat="45.08379" lon="0.65966">
        <ele>219.8</ele>
        <time>2019-04-18T13:36:20Z</time>
      </trkpt>
      <trkpt lat="45.08373" lon="0.65977">
        <ele>220.76</ele>
        <time>2019-04-18T13:36:28Z</time>
      </trkpt>
      <trkpt lat="45.08373" lon="0.65979">
        <ele>220.76</ele>
        <time>2019-04-18T13:36:29Z</time>
      </trkpt>
      <trkpt lat="45.08372" lon="0.6598">
        <ele>220.76</ele>
        <time>2019-04-18T13:36:30Z</time>
      </trkpt>
      <trkpt lat="45.0836" lon="0.66001">
        <ele>221.24</ele>
        <time>2019-04-18T13:36:51Z</time>
      </trkpt>
      <trkpt lat="45.08359" lon="0.66003">
        <ele>221.24</ele>
        <time>2019-04-18T13:36:53Z</time>
      </trkpt>
      <trkpt lat="45.08346" lon="0.66038">
        <ele>221.72</ele>
        <time>2019-04-18T13:37:18Z</time>
      </trkpt>
      <trkpt lat="45.0834" lon="0.66062">
        <ele>221.72</ele>
        <time>2019-04-18T13:37:36Z</time>
      </trkpt>
      <trkpt lat="45.08326" lon="0.6609">
        <ele>221.24</ele>
        <time>2019-04-18T13:37:58Z</time>
      </trkpt>
      <trkpt lat="45.08315" lon="0.66115">
        <ele>220.76</ele>
        <time>2019-04-18T13:38:18Z</time>
      </trkpt>
      <trkpt lat="45.08298" lon="0.66131">
        <ele>219.8</ele>
        <time>2019-04-18T13:38:36Z</time>
      </trkpt>
      <trkpt lat="45.08282" lon="0.66135">
        <ele>220.28</ele>
        <time>2019-04-18T13:38:53Z</time>
      </trkpt>
      <trkpt lat="45.08264" lon="0.66134">
        <ele>220.76</ele>
        <time>2019-04-18T13:39:10Z</time>
      </trkpt>
      <trkpt lat="45.08247" lon="0.66129">
        <ele>223.16</ele>
        <time>2019-04-18T13:39:29Z</time>
      </trkpt>
      <trkpt lat="45.08234" lon="0.66128">
        <ele>222.2</ele>
        <time>2019-04-18T13:39:46Z</time>
      </trkpt>
      <trkpt lat="45.08142" lon="0.66117">
        <ele>204.6</ele>
      </trkpt>
      <trkpt lat="45.08035" lon="0.66155">
        <ele>205.3</ele>
      </trkpt>
      <trkpt lat="45.07827" lon="0.66123">
        <ele>207.6</ele>
      </trkpt>
      <trkpt lat="45.07947" lon="0.65948">
        <ele>202.4</ele>
      </trkpt>
      <trkpt lat="45.07967" lon="0.65783">
        <ele>201.8</ele>
      </trkpt>
      <trkpt lat="45.08074" lon="0.65553">
        <ele>183.1</ele>
      </trkpt>
      <trkpt lat="45.08077" lon="0.65419">
        <ele>179.8</ele>
      </trkpt>
      <trkpt lat="45.08022" lon="0.65493">
        <ele>188.3</ele>
      </trkpt>
      <trkpt lat="45.07915" lon="0.65534">
        <ele>201.1</ele>
      </trkpt>
      <trkpt lat="45.07801" lon="0.65571">
        <ele>207.3</ele>
      </trkpt>
      <trkpt lat="45.07736" lon="0.65732">
        <ele>216.9</ele>
      </trkpt>
      <trkpt lat="45.07681" lon="0.65672">
        <ele>217.5</ele>
      </trkpt>
      <trkpt lat="45.07622" lon="0.65792">
        <ele>220.8</ele>
      </trkpt>
      <trkpt lat="45.07694" lon="0.6599">
        <ele>214.7</ele>
      </trkpt>
      <trkpt lat="45.07697" lon="0.66045">
        <ele>213.3</ele>
      </trkpt>
      <trkpt lat="45.07652" lon="0.66151">
        <ele>213.7</ele>
      </trkpt>
      <trkpt lat="45.076" lon="0.66358">
        <ele>217.8</ele>
      </trkpt>
      <trkpt lat="45.0759" lon="0.66468">
        <ele>221.6</ele>
      </trkpt>
      <trkpt lat="45.07681" lon="0.66588">
        <ele>223.8</ele>
      </trkpt>
      <trkpt lat="45.07557" lon="0.6685">
        <ele>229.7</ele>
      </trkpt>
      <trkpt lat="45.07424" lon="0.66997">
        <ele>230.3</ele>
      </trkpt>
      <trkpt lat="45.07343" lon="0.67103">
        <ele>228.7</ele>
      </trkpt>
      <trkpt lat="45.0748" lon="0.67209">
        <ele>221</ele>
      </trkpt>
      <trkpt lat="45.0758" lon="0.67153">
        <ele>222.2</ele>
      </trkpt>
      <trkpt lat="45.07629" lon="0.67163">
        <ele>222.4</ele>
      </trkpt>
      <trkpt lat="45.07681" lon="0.67144">
        <ele>222</ele>
      </trkpt>
      <trkpt lat="45.07749" lon="0.67176">
        <ele>219.9</ele>
      </trkpt>
      <trkpt lat="45.07817" lon="0.67172">
        <ele>218.3</ele>
      </trkpt>
      <trkpt lat="45.07902" lon="0.67209">
        <ele>214.6</ele>
      </trkpt>
      <trkpt lat="45.07999" lon="0.67158">
        <ele>204.1</ele>
      </trkpt>
      <trkpt lat="45.08201" lon="0.6714">
        <ele>187.1</ele>
      </trkpt>
      <trkpt lat="45.0821" lon="0.67084">
        <ele>186.6</ele>
      </trkpt>
      <trkpt lat="45.08139" lon="0.67006">
        <ele>189</ele>
      </trkpt>
      <trkpt lat="45.08334" lon="0.66947">
        <ele>172.7</ele>
      </trkpt>
      <trkpt lat="45.08382" lon="0.66965">
        <ele>169.9</ele>
      </trkpt>
      <trkpt lat="45.08454" lon="0.66868">
        <ele>165.7</ele>
      </trkpt>
      <trkpt lat="45.08495" lon="0.66769">
        <ele>171.7</ele>
        <time>2019-04-18T13:58:29Z</time>
      </trkpt>
    </trkseg>
  </trk>
</gpx>